Darstellungsparameter: Aktuell verwendete Einstellungen:
Skalierung der Graphiken ... ?
xyx+y,   Skalierungsfaktor:      Skalierung: Modus: x, Faktor: 1
Darstellungszeitraum ... ?
Vom - - bis: - -   Zeitraum: 03.04.2021 - 13.04.2021
Min/Max/Avg-Anzeige ... ?
Zeige MMA aktuell
Zeige MMA Monat
Zeige MMA alles
Zeige --A aktuell
Zeige --A Monat
Zeige --A alles
Keine MMA-Anzeige
MMA:
Average (ber die Originaldaten)
MMA-Basis: 03.04.2021 - 13.04.2021
Quicknavigation für Darstellung... ?
Tage:      1T, 2T, 3T, 5T -1T -2T -3T -5T +1T +2T +3T +5T
Wochen: 1W, 2W, 3W -1W -2W -3W +1W +2W +3W
Monate: 1M, 3M, 6M -1M -3M -6M +1M +3M +6M
Jahre:    1J, 3J, 5J, 10J -1J -3J -5J -10J +1J +3J +5J +10J
Nutze für die Darstellung ... ?
Originaldaten oder Mittelwerte auf ...
Stundenbasis Tagesbasis Wochenbasis
Monatsbasis Jahresbasis      Datenbasis: Original-Daten
Darstellen als:
Statistik (Auto) Statistik J:M      Darstellung:

Der gewünschte Datumsbereich war nicht gültig/verfügbar und wurde korrigiert....
Das angegebene Enddatum (01.05.2021 23:59:59) liegt in der Zukunft.


Zur Graphik,    zurück zur Übersicht aller Sensoren.
 
Tabellarische Datenbersicht: ?
 
Sensor: Nr:Datum:Temp:Feuchte:
Aussen-T/F 1 03-04-2021 00:02:17 6.5 C 32 %
2 03-04-2021 00:12:17 6.4 C 32 %
3 03-04-2021 00:22:17 6.4 C 32 %
4 03-04-2021 00:32:17 6.5 C 32 %
5 03-04-2021 00:42:17 6.4 C 32 %
6 03-04-2021 00:52:17 6.4 C 33 %
7 03-04-2021 01:02:17 6.4 C 32 %
8 03-04-2021 01:12:17 6.4 C 32 %
9 03-04-2021 01:22:17 6.4 C 33 %
10 03-04-2021 01:32:17 6.3 C 33 %
11 03-04-2021 01:42:17 6.3 C 34 %
12 03-04-2021 01:52:17 6.3 C 34 %
13 03-04-2021 02:02:18 6.3 C 34 %
14 03-04-2021 02:12:18 6.3 C 33 %
15 03-04-2021 02:22:18 6.3 C 33 %
16 03-04-2021 02:32:17 6.3 C 34 %
17 03-04-2021 02:42:17 6.3 C 35 %
18 03-04-2021 02:52:17 6.2 C 34 %
19 03-04-2021 03:02:17 6.2 C 35 %
20 03-04-2021 03:12:17 6.2 C 35 %
21 03-04-2021 03:22:17 6.1 C 35 %
22 03-04-2021 03:32:17 6.1 C 35 %
23 03-04-2021 03:42:17 6 C 35 %
24 03-04-2021 03:52:17 6 C 35 %
25 03-04-2021 04:02:17 6 C 36 %
Sensor: Nr:Datum:Temp:Feuchte:
Aussen-T/F 26 03-04-2021 04:12:17 6 C 36 %
27 03-04-2021 04:22:17 5.9 C 37 %
28 03-04-2021 04:32:17 6 C 37 %
29 03-04-2021 04:42:18 5.9 C 37 %
30 03-04-2021 04:52:17 5.9 C 36 %
31 03-04-2021 05:02:17 5.9 C 36 %
32 03-04-2021 05:12:18 5.9 C 36 %
33 03-04-2021 05:22:17 5.8 C 36 %
34 03-04-2021 05:32:17 5.8 C 36 %
35 03-04-2021 05:42:17 5.7 C 35 %
36 03-04-2021 05:52:17 5.6 C 35 %
37 03-04-2021 06:02:17 5.6 C 35 %
38 03-04-2021 06:12:17 5.5 C 35 %
39 03-04-2021 06:22:17 5.4 C 36 %
40 03-04-2021 06:32:17 5.5 C 36 %
41 03-04-2021 06:42:17 5.5 C 36 %
42 03-04-2021 06:52:18 5.5 C 36 %
43 03-04-2021 07:02:17 5.3 C 36 %
44 03-04-2021 07:12:18 5.2 C 36 %
45 03-04-2021 07:22:18 5.3 C 36 %
46 03-04-2021 07:32:18 5.3 C 36 %
47 03-04-2021 07:42:18 4 C 41 %
48 03-04-2021 07:52:18 3.9 C 44 %
49 03-04-2021 08:02:18 4 C 43 %
50 03-04-2021 08:12:18 4.2 C 42 %
Sensor: Nr:Datum:Temp:Feuchte:
Aussen-T/F 51 03-04-2021 08:22:18 4.4 C 40 %
52 03-04-2021 08:32:18 4.5 C 40 %
53 03-04-2021 08:42:18 4.4 C 40 %
54 03-04-2021 08:52:17 4.3 C 39 %
55 03-04-2021 09:02:17 4.3 C 39 %
56 03-04-2021 09:12:18 4.6 C 38 %
57 03-04-2021 09:22:17 4.5 C 38 %
58 03-04-2021 09:32:17 4.7 C 37 %
59 03-04-2021 09:42:17 4.9 C 37 %
60 03-04-2021 09:52:17 4.9 C 36 %
61 03-04-2021 10:02:17 4.9 C 36 %
62 03-04-2021 10:12:17 5 C 35 %
63 03-04-2021 10:22:17 5.3 C 35 %
64 03-04-2021 10:32:17 5.8 C 34 %
65 03-04-2021 10:42:17 6.4 C 34 %
66 03-04-2021 10:52:18 6.7 C 33 %
67 03-04-2021 11:02:17 7.1 C 32 %
68 03-04-2021 11:12:17 8.7 C 31 %
69 03-04-2021 11:22:18 8.4 C 31 %
70 03-04-2021 11:32:18 8.8 C 31 %
71 03-04-2021 11:42:18 9.1 C 30 %
72 03-04-2021 11:52:18 9.8 C 30 %
73 03-04-2021 12:02:17 11.2 C 28 %
74 03-04-2021 12:12:18 10.4 C 28 %
75 03-04-2021 12:22:18 10.5 C 29 %
Sensor: Nr:Datum:Temp:Feuchte:
Aussen-T/F 76 03-04-2021 12:32:18 11.2 C 28 %
77 03-04-2021 12:42:18 10.8 C 28 %
78 03-04-2021 12:52:18 10.7 C 28 %
79 03-04-2021 13:02:18 11.3 C 27 %
80 03-04-2021 13:12:18 11.2 C 27 %
81 03-04-2021 13:22:17 10.5 C 28 %
82 03-04-2021 13:32:18 10.7 C 28 %
83 03-04-2021 13:42:18 12.3 C 26 %
84 03-04-2021 13:52:17 11.5 C 27 %
85 03-04-2021 14:02:17 11.4 C 26 %
86 03-04-2021 14:12:18 13.1 C 24 %
87 03-04-2021 14:22:17 14 C 20 %
88 03-04-2021 14:32:17 11.8 C 25 %
89 03-04-2021 14:42:18 15.2 C 20 %
90 03-04-2021 14:52:17 13.9 C 20 %
91 03-04-2021 15:02:17 13.2 C 20 %
92 03-04-2021 15:12:17 16.2 C 20 %
93 03-04-2021 15:22:18 12.9 C 20 %
94 03-04-2021 15:32:18 16.4 C 20 %
95 03-04-2021 15:42:18 18.3 C 20 %
96 03-04-2021 15:52:18 14.9 C 20 %
97 03-04-2021 16:02:18 16.3 C 20 %
98 03-04-2021 16:12:18 14.5 C 20 %
99 03-04-2021 16:22:17 14.1 C 20 %
100 03-04-2021 16:32:17 13.9 C 20 %
Sensor: Nr:Datum:Temp:Feuchte:
Aussen-T/F 101 03-04-2021 16:42:18 13.7 C 20 %
102 03-04-2021 16:52:17 13.9 C 20 %
103 03-04-2021 17:02:18 13.8 C 20 %
104 03-04-2021 17:12:18 14.6 C 20 %
105 03-04-2021 17:22:18 16.1 C 20 %
106 03-04-2021 17:32:17 14.5 C 20 %
107 03-04-2021 17:42:18 13.9 C 20 %
108 03-04-2021 17:52:18 13.5 C 20 %
109 03-04-2021 18:02:17 12.4 C 20 %
110 03-04-2021 18:12:17 12.3 C 20 %
111 03-04-2021 18:22:17 12.8 C 20 %
112 03-04-2021 18:32:17 12.5 C 20 %
113 03-04-2021 18:42:17 12.6 C 20 %
114 03-04-2021 18:52:18 12.1 C 20 %
115 03-04-2021 19:02:17 11.5 C 21 %
116 03-04-2021 19:12:17 11.4 C 21 %
117 03-04-2021 19:22:17 11.2 C 22 %
118 03-04-2021 19:32:17 10.9 C 22 %
119 03-04-2021 19:42:17 10.7 C 21 %
120 03-04-2021 19:52:18 10.2 C 22 %
121 03-04-2021 20:02:17 9.5 C 25 %
122 03-04-2021 20:12:17 9.2 C 25 %
123 03-04-2021 20:22:17 7.8 C 27 %
124 03-04-2021 20:32:17 7 C 30 %
125 03-04-2021 20:42:17 6.7 C 31 %
Sensor: Nr:Datum:Temp:Feuchte:
Aussen-T/F 126 03-04-2021 20:52:18 6.8 C 30 %
127 03-04-2021 21:02:17 6.8 C 30 %
128 03-04-2021 21:12:17 6.7 C 31 %
129 03-04-2021 21:22:17 6.7 C 30 %
130 03-04-2021 21:32:18 6.5 C 31 %
131 03-04-2021 21:42:18 6.3 C 31 %
132 03-04-2021 21:52:17 6 C 31 %
133 03-04-2021 22:02:17 6 C 31 %
134 03-04-2021 22:12:17 5.7 C 32 %
135 03-04-2021 22:22:17 5.7 C 32 %
136 03-04-2021 22:32:17 5.7 C 32 %
137 03-04-2021 22:42:17 5.4 C 32 %
138 03-04-2021 22:52:18 5.2 C 32 %
139 03-04-2021 23:02:17 4.6 C 35 %
140 03-04-2021 23:12:17 4.4 C 34 %
141 03-04-2021 23:22:17 3.3 C 37 %
142 03-04-2021 23:32:17 2.8 C 39 %
143 03-04-2021 23:42:17 2.6 C 39 %
144 03-04-2021 23:52:17 2.4 C 40 %
145 04-04-2021 00:02:17 2.6 C 39 %
146 04-04-2021 00:12:17 2.4 C 39 %
147 04-04-2021 00:22:17 2.3 C 40 %
148 04-04-2021 00:32:17 2.2 C 40 %
149 04-04-2021 00:42:17 2.1 C 40 %
150 04-04-2021 00:52:18 2 C 41 %
Sensor: Nr:Datum:Temp:Feuchte:
Aussen-T/F 151 04-04-2021 01:02:17 1.8 C 42 %
152 04-04-2021 01:12:17 1.8 C 42 %
153 04-04-2021 01:22:17 1.5 C 42 %
154 04-04-2021 01:32:17 1.3 C 43 %
155 04-04-2021 01:42:17 1.4 C 43 %
156 04-04-2021 01:52:18 1.4 C 44 %
157 04-04-2021 02:02:17 1.9 C 44 %
158 04-04-2021 02:12:17 1.7 C 44 %
159 04-04-2021 02:22:17 1.6 C 45 %
160 04-04-2021 02:32:17 2.7 C 45 %
161 04-04-2021 02:42:17 3.8 C 41 %
162 04-04-2021 02:52:17 4.1 C 40 %
163 04-04-2021 03:02:17 3.9 C 41 %
164 04-04-2021 03:12:17 3.2 C 41 %
165 04-04-2021 03:22:17 3.6 C 42 %
166 04-04-2021 03:32:17 3.2 C 42 %
167 04-04-2021 03:42:17 3.2 C 42 %
168 04-04-2021 03:52:17 3.3 C 42 %
169 04-04-2021 04:02:18 2.8 C 43 %
170 04-04-2021 04:12:18 2.6 C 43 %
171 04-04-2021 04:22:17 2.4 C 44 %
172 04-04-2021 04:32:17 2.5 C 44 %
173 04-04-2021 04:42:17 2.6 C 44 %
174 04-04-2021 04:52:17 3 C 43 %
175 04-04-2021 05:02:17 2.8 C 44 %
Sensor: Nr:Datum:Temp:Feuchte:
Aussen-T/F 176 04-04-2021 05:12:17 2.4 C 45 %
177 04-04-2021 05:22:17 2.2 C 44 %
178 04-04-2021 05:32:17 2.1 C 45 %
179 04-04-2021 05:42:17 1.5 C 46 %
180 04-04-2021 05:52:17 1.6 C 48 %
181 04-04-2021 06:02:18 1.2 C 46 %
182 04-04-2021 06:12:18 1.3 C 48 %
183 04-04-2021 06:22:17 0.6 C 48 %
184 04-04-2021 06:32:18 0.3 C 49 %
185 04-04-2021 06:42:18 0.3 C 49 %
186 04-04-2021 06:52:17 0 C 50 %
187 04-04-2021 07:02:17 -0.1 C 50 %
188 04-04-2021 07:12:17 0.1 C 51 %
189 04-04-2021 07:22:17 0.2 C 50 %
190 04-04-2021 07:32:17 0.1 C 50 %
191 04-04-2021 07:42:17 0 C 50 %
192 04-04-2021 07:52:18 0.1 C 50 %
193 04-04-2021 08:02:17 0.3 C 50 %
194 04-04-2021 08:12:17 0.5 C 50 %
195 04-04-2021 08:22:17 0.9 C 50 %
196 04-04-2021 08:32:17 1.4 C 48 %
197 04-04-2021 08:42:17 1.5 C 47 %
198 04-04-2021 08:52:17 1.7 C 47 %
199 04-04-2021 09:02:17 2.8 C 47 %
200 04-04-2021 09:12:17 3.4 C 43 %
Sensor: Nr:Datum:Temp:Feuchte:
Aussen-T/F 201 04-04-2021 09:22:17 3.9 C 42 %
202 04-04-2021 09:32:17 4.3 C 41 %
203 04-04-2021 09:42:17 5 C 40 %
204 04-04-2021 09:52:17 5.6 C 38 %
205 04-04-2021 10:02:17 5.7 C 38 %
206 04-04-2021 10:12:18 5.9 C 37 %
207 04-04-2021 10:22:17 6.7 C 36 %
208 04-04-2021 10:32:17 6.6 C 36 %
209 04-04-2021 10:42:17 7 C 35 %
210 04-04-2021 10:52:18 7.1 C 35 %
211 04-04-2021 11:02:17 7 C 34 %
212 04-04-2021 11:12:17 7.6 C 34 %
213 04-04-2021 11:22:17 7.5 C 33 %
214 04-04-2021 11:32:17 7.5 C 33 %
215 04-04-2021 11:42:17 7 C 33 %
216 04-04-2021 11:52:17 7.5 C 33 %
217 04-04-2021 12:02:17 7.3 C 33 %
218 04-04-2021 12:12:17 7.7 C 32 %
219 04-04-2021 12:22:17 7.4 C 32 %
220 04-04-2021 12:32:18 8.1 C 32 %
221 04-04-2021 12:42:18 7.8 C 33 %
222 04-04-2021 12:52:17 8.1 C 32 %
223 04-04-2021 13:02:17 8.2 C 32 %
224 04-04-2021 13:12:17 8 C 31 %
225 04-04-2021 13:22:17 8.3 C 31 %
Sensor: Nr:Datum:Temp:Feuchte:
Aussen-T/F 226 04-04-2021 13:32:17 8.3 C 31 %
227 04-04-2021 13:42:17 8.7 C 31 %
228 04-04-2021 13:52:17 8.5 C 31 %
229 04-04-2021 14:02:18 9.4 C 30 %
230 04-04-2021 14:12:18 10.6 C 30 %
231 04-04-2021 14:22:17 10.2 C 29 %
232 04-04-2021 14:32:17 12.2 C 26 %
233 04-04-2021 14:42:17 12.1 C 26 %
234 04-04-2021 14:52:17 11.2 C 27 %
235 04-04-2021 15:02:17 11.3 C 27 %
236 04-04-2021 15:12:17 11.7 C 26 %
237 04-04-2021 15:22:17 13.6 C 25 %
238 04-04-2021 15:32:17 15.1 C 22 %
239 04-04-2021 15:42:17 15.4 C 21 %
240 04-04-2021 15:52:17 14.7 C 23 %
241 04-04-2021 16:02:17 12.6 C 25 %
242 04-04-2021 16:12:17 12 C 25 %
243 04-04-2021 16:22:17 15 C 22 %
244 04-04-2021 16:32:17 14.2 C 22 %
245 04-04-2021 16:42:17 15.4 C 21 %
246 04-04-2021 16:52:17 15.1 C 21 %
247 04-04-2021 17:02:17 12.4 C 25 %
248 04-04-2021 17:12:17 11.6 C 26 %
249 04-04-2021 17:22:17 12.9 C 25 %
250 04-04-2021 17:32:17 12.2 C 25 %
Sensor: Nr:Datum:Temp:Feuchte:
Aussen-T/F 251 04-04-2021 17:42:18 12.7 C 26 %
252 04-04-2021 17:52:17 11.5 C 26 %
253 04-04-2021 18:02:17 9.6 C 30 %
254 04-04-2021 18:12:17 9.9 C 30 %
255 04-04-2021 18:22:17 9.3 C 30 %
256 04-04-2021 18:32:17 8.7 C 30 %
257 04-04-2021 18:42:17 8.9 C 31 %
258 04-04-2021 18:52:18 8.9 C 31 %
259 04-04-2021 19:02:17 8.5 C 31 %
260 04-04-2021 19:12:18 7.9 C 31 %
261 04-04-2021 19:22:17 7.6 C 32 %
262 04-04-2021 19:32:17 7.4 C 32 %
263 04-04-2021 19:42:17 7 C 32 %
264 04-04-2021 19:52:17 6.6 C 34 %
265 04-04-2021 20:02:17 6.4 C 35 %
266 04-04-2021 20:12:17 5.8 C 35 %
267 04-04-2021 20:22:17 4.6 C 37 %
268 04-04-2021 20:32:17 4.4 C 38 %
269 04-04-2021 20:42:17 4.5 C 38 %
270 04-04-2021 20:52:17 4.5 C 38 %
271 04-04-2021 21:02:17 4.5 C 38 %
272 04-04-2021 21:12:17 4.5 C 38 %
273 04-04-2021 21:22:17 4.2 C 38 %
274 04-04-2021 21:32:18 3.5 C 40 %
275 04-04-2021 21:42:18 3.4 C 40 %
Sensor: Nr:Datum:Temp:Feuchte:
Aussen-T/F 276 04-04-2021 21:52:17 3.4 C 40 %
277 04-04-2021 22:02:17 2.7 C 41 %
278 04-04-2021 22:12:17 2 C 43 %
279 04-04-2021 22:22:17 2.3 C 44 %
280 04-04-2021 22:32:17 1.6 C 45 %
281 04-04-2021 22:42:17 1.4 C 46 %
282 04-04-2021 22:52:17 1.3 C 46 %
283 04-04-2021 23:02:18 1.1 C 46 %
284 04-04-2021 23:12:18 1 C 46 %
285 04-04-2021 23:22:18 1.1 C 46 %
286 04-04-2021 23:32:17 0.6 C 47 %
287 04-04-2021 23:42:17 0.5 C 48 %
288 04-04-2021 23:52:17 0.5 C 48 %
289 05-04-2021 00:02:17 0.7 C 48 %
290 05-04-2021 00:12:17 0.5 C 48 %
291 05-04-2021 00:22:17 0.2 C 48 %
292 05-04-2021 00:32:17 0.2 C 49 %
293 05-04-2021 00:42:17 0.3 C 50 %
294 05-04-2021 00:52:17 0.1 C 48 %
295 05-04-2021 01:02:17 0.1 C 49 %
296 05-04-2021 01:12:17 0 C 49 %
297 05-04-2021 01:22:17 0.1 C 49 %
298 05-04-2021 01:32:17 0.1 C 50 %
299 05-04-2021 01:42:17 0.1 C 50 %
300 05-04-2021 01:52:17 -0.2 C 49 %
Sensor: Nr:Datum:Temp:Feuchte:
Aussen-T/F 301 05-04-2021 02:02:17 -0.3 C 49 %
302 05-04-2021 02:12:17 -0.5 C 49 %
303 05-04-2021 02:22:17 -0.6 C 50 %
304 05-04-2021 02:32:17 -0.7 C 49 %
305 05-04-2021 02:42:17 -0.8 C 50 %
306 05-04-2021 02:52:18 -0.4 C 51 %
307 05-04-2021 03:02:17 -0.2 C 51 %
308 05-04-2021 03:12:17 -0.1 C 50 %
309 05-04-2021 03:22:17 0 C 50 %
310 05-04-2021 03:32:17 -0.1 C 50 %
311 05-04-2021 03:42:17 0.2 C 50 %
312 05-04-2021 03:52:17 0.1 C 50 %
313 05-04-2021 04:02:17 0.2 C 50 %
314 05-04-2021 04:12:17 0.3 C 49 %
315 05-04-2021 04:22:17 0.5 C 50 %
316 05-04-2021 04:32:18 0.6 C 50 %
317 05-04-2021 04:42:18 1.1 C 49 %
318 05-04-2021 04:52:17 1.6 C 49 %
319 05-04-2021 05:02:17 2.8 C 45 %
320 05-04-2021 05:12:17 3.8 C 42 %
321 05-04-2021 05:22:17 3.8 C 41 %
322 05-04-2021 05:32:17 4.2 C 40 %
323 05-04-2021 05:42:17 4 C 40 %
324 05-04-2021 05:52:18 4 C 41 %
325 05-04-2021 06:02:17 4.4 C 40 %
Sensor: Nr:Datum:Temp:Feuchte:
Aussen-T/F 326 05-04-2021 06:12:17 4.6 C 40 %
327 05-04-2021 06:22:17 4.6 C 40 %
328 05-04-2021 06:32:17 4.6 C 40 %
329 05-04-2021 06:42:17 4.7 C 40 %
330 05-04-2021 06:52:18 4.7 C 40 %
331 05-04-2021 07:02:17 5 C 39 %
332 05-04-2021 07:12:17 5 C 39 %
333 05-04-2021 07:22:17 5 C 39 %
334 05-04-2021 07:32:18 4.9 C 40 %
335 05-04-2021 07:42:18 4.8 C 40 %
336 05-04-2021 07:52:17 4.8 C 40 %
337 05-04-2021 08:02:17 4.9 C 40 %
338 05-04-2021 08:12:17 5.1 C 39 %
339 05-04-2021 08:22:17 5.1 C 39 %
340 05-04-2021 08:32:17 5.3 C 39 %
341 05-04-2021 08:42:18 5.5 C 39 %
342 05-04-2021 08:52:17 5.7 C 39 %
343 05-04-2021 09:02:17 5.8 C 39 %
344 05-04-2021 09:12:17 6 C 38 %
345 05-04-2021 09:22:17 6 C 38 %
346 05-04-2021 09:32:17 6 C 38 %
347 05-04-2021 09:42:17 6 C 38 %
348 05-04-2021 09:52:18 6.2 C 38 %
349 05-04-2021 10:02:17 6.3 C 38 %
350 05-04-2021 10:12:17 6.5 C 38 %
Sensor: Nr:Datum:Temp:Feuchte:
Aussen-T/F 351 05-04-2021 10:22:17 6.4 C 38 %
352 05-04-2021 10:32:17 6.3 C 38 %
353 05-04-2021 10:42:17 6.3 C 39 %
354 05-04-2021 10:52:18 6.2 C 39 %
355 05-04-2021 11:02:17 6 C 40 %
356 05-04-2021 11:12:17 6 C 40 %
357 05-04-2021 11:22:17 6.3 C 40 %
358 05-04-2021 11:32:17 6 C 41 %
359 05-04-2021 11:42:17 5.6 C 43 %
360 05-04-2021 11:52:17 5.5 C 43 %
361 05-04-2021 12:02:17 5.6 C 43 %
362 05-04-2021 12:12:17 5.5 C 43 %
363 05-04-2021 12:22:17 5.2 C 44 %
364 05-04-2021 12:32:17 4.2 C 44 %
365 05-04-2021 12:42:17 3.8 C 45 %
366 05-04-2021 12:52:17 3.8 C 45 %
367 05-04-2021 13:02:17 3.9 C 45 %
368 05-04-2021 13:12:17 4.1 C 43 %
369 05-04-2021 13:22:17 4.1 C 43 %
370 05-04-2021 13:32:17 3.6 C 44 %
371 05-04-2021 13:42:17 3.2 C 45 %
372 05-04-2021 13:52:17 2.9 C 45 %
373 05-04-2021 14:02:17 2.6 C 45 %
374 05-04-2021 14:12:17 2.5 C 45 %
375 05-04-2021 14:22:17 2.8 C 45 %
Sensor: Nr:Datum:Temp:Feuchte:
Aussen-T/F 376 05-04-2021 14:32:17 3.5 C 44 %
377 05-04-2021 14:42:18 3.8 C 42 %
378 05-04-2021 14:52:17 4.2 C 40 %
379 05-04-2021 15:02:17 1.2 C 44 %
380 05-04-2021 15:12:17 1.3 C 43 %
381 05-04-2021 15:22:17 2 C 42 %
382 05-04-2021 15:32:17 2.6 C 41 %
383 05-04-2021 15:42:17 3.8 C 40 %
384 05-04-2021 15:52:18 3.3 C 40 %
385 05-04-2021 16:02:17 3.4 C 40 %
386 05-04-2021 16:12:17 4.7 C 37 %
387 05-04-2021 16:22:17 4.5 C 37 %
388 05-04-2021 16:32:17 4.9 C 36 %
389 05-04-2021 16:42:17 3.7 C 37 %
390 05-04-2021 16:52:17 4.9 C 35 %
391 05-04-2021 17:02:17 7.5 C 30 %
392 05-04-2021 17:12:17 4.3 C 36 %
393 05-04-2021 17:22:17 3.4 C 36 %
394 05-04-2021 17:32:17 5.2 C 33 %
395 05-04-2021 17:42:17 7.6 C 31 %
396 05-04-2021 17:52:17 5.2 C 33 %
397 05-04-2021 18:02:17 4.6 C 35 %
398 05-04-2021 18:12:17 5 C 33 %
399 05-04-2021 18:22:17 4.7 C 32 %
400 05-04-2021 18:32:17 4.8 C 31 %
Sensor: Nr:Datum:Temp:Feuchte:
Aussen-T/F 401 05-04-2021 18:42:17 4.9 C 30 %
402 05-04-2021 18:52:17 4.7 C 30 %
403 05-04-2021 19:02:17 4.3 C 30 %
404 05-04-2021 19:12:17 4.3 C 30 %
405 05-04-2021 19:22:17 4 C 30 %
406 05-04-2021 19:32:17 3.8 C 31 %
407 05-04-2021 19:42:17 3.1 C 32 %
408 05-04-2021 19:52:18 2.7 C 33 %
409 05-04-2021 20:02:17 2.2 C 33 %
410 05-04-2021 20:12:17 1.8 C 34 %
411 05-04-2021 20:22:17 1.7 C 34 %
412 05-04-2021 20:32:17 1.1 C 36 %
413 05-04-2021 20:42:17 1.1 C 36 %
414 05-04-2021 20:52:17 1.1 C 36 %
415 05-04-2021 21:02:17 1.2 C 36 %
416 05-04-2021 21:12:17 1.5 C 36 %
417 05-04-2021 21:22:17 1.5 C 36 %
418 05-04-2021 21:32:17 1.5 C 36 %
419 05-04-2021 21:42:17 1.5 C 37 %
420 05-04-2021 21:52:17 1.3 C 38 %
421 05-04-2021 22:02:18 1 C 38 %
422 05-04-2021 22:12:18 0.7 C 40 %
423 05-04-2021 22:22:17 0.8 C 40 %
424 05-04-2021 22:32:17 1 C 38 %
425 05-04-2021 22:42:17 1 C 38 %
Sensor: Nr:Datum:Temp:Feuchte:
Aussen-T/F 426 05-04-2021 22:52:17 0.9 C 39 %
427 05-04-2021 23:02:17 1.1 C 38 %
428 05-04-2021 23:12:17 1.1 C 37 %
429 05-04-2021 23:22:17 1.2 C 37 %
430 05-04-2021 23:32:17 0.6 C 39 %
431 05-04-2021 23:42:17 0.5 C 39 %
432 05-04-2021 23:52:18 0.5 C 39 %
433 06-04-2021 00:02:17 0.4 C 40 %
434 06-04-2021 00:12:17 0.5 C 39 %
435 06-04-2021 00:22:17 0.5 C 39 %
436 06-04-2021 00:32:17 0.6 C 39 %
437 06-04-2021 00:42:17 0.3 C 40 %
438 06-04-2021 00:52:17 0.4 C 39 %
439 06-04-2021 01:02:18 0.2 C 39 %
440 06-04-2021 01:12:18 0.2 C 40 %
441 06-04-2021 01:22:17 0.3 C 39 %
442 06-04-2021 01:32:18 0.3 C 39 %
443 06-04-2021 01:42:18 0.5 C 39 %
444 06-04-2021 01:52:17 0.7 C 40 %
445 06-04-2021 02:02:17 0.4 C 40 %
446 06-04-2021 02:12:17 0.5 C 41 %
447 06-04-2021 02:22:17 0.6 C 41 %
448 06-04-2021 02:32:17 0.7 C 41 %
449 06-04-2021 02:42:17 0.8 C 41 %
450 06-04-2021 02:52:17 0.8 C 42 %
Sensor: Nr:Datum:Temp:Feuchte:
Aussen-T/F 451 06-04-2021 03:02:17 0.5 C 43 %
452 06-04-2021 03:12:17 0.5 C 43 %
453 06-04-2021 03:22:17 0.9 C 42 %
454 06-04-2021 03:32:17 0.9 C 42 %
455 06-04-2021 03:42:17 1 C 41 %
456 06-04-2021 03:52:17 1.1 C 41 %
457 06-04-2021 04:02:17 1.3 C 41 %
458 06-04-2021 04:12:17 1.3 C 41 %
459 06-04-2021 04:22:17 1.4 C 41 %
460 06-04-2021 04:32:17 1.8 C 40 %
461 06-04-2021 04:42:18 1.9 C 40 %
462 06-04-2021 04:52:17 1.8 C 40 %
463 06-04-2021 05:02:18 1.8 C 40 %
464 06-04-2021 05:12:18 2.1 C 39 %
465 06-04-2021 05:22:18 2.2 C 39 %
466 06-04-2021 05:32:17 2.2 C 39 %
467 06-04-2021 05:42:17 2 C 39 %
468 06-04-2021 05:52:17 2.1 C 39 %
469 06-04-2021 06:02:17 2 C 40 %
470 06-04-2021 06:12:17 1.4 C 42 %
471 06-04-2021 06:22:17 0.8 C 46 %
472 06-04-2021 06:32:17 1 C 45 %
473 06-04-2021 06:42:17 0.8 C 45 %
474 06-04-2021 06:52:17 1.3 C 43 %
475 06-04-2021 07:02:17 1.1 C 44 %
Sensor: Nr:Datum:Temp:Feuchte:
Aussen-T/F 476 06-04-2021 07:12:17 0.9 C 46 %
477 06-04-2021 07:22:17 0.8 C 46 %
478 06-04-2021 07:32:17 0.9 C 46 %
479 06-04-2021 07:42:17 1.1 C 45 %
480 06-04-2021 07:52:18 1.1 C 45 %
481 06-04-2021 08:02:17 1.3 C 43 %
482 06-04-2021 08:12:17 1.4 C 43 %
483 06-04-2021 08:22:17 1.9 C 41 %
484 06-04-2021 08:32:17 2.1 C 40 %
485 06-04-2021 08:42:17 2.3 C 40 %
486 06-04-2021 08:52:17 2.7 C 39 %
487 06-04-2021 09:02:17 2.9 C 38 %
488 06-04-2021 09:12:17 2.7 C 39 %
489 06-04-2021 09:22:18 2.9 C 39 %
490 06-04-2021 09:32:17 2.8 C 38 %
491 06-04-2021 09:42:17 3 C 37 %
492 06-04-2021 09:52:17 3 C 37 %
493 06-04-2021 10:02:17 3.2 C 37 %
494 06-04-2021 10:12:17 3.8 C 37 %
495 06-04-2021 10:22:17 3.6 C 36 %
496 06-04-2021 10:32:17 4.2 C 35 %
497 06-04-2021 10:42:17 3.7 C 36 %
498 06-04-2021 10:52:17 4 C 35 %
499 06-04-2021 11:02:17 4.4 C 35 %
500 06-04-2021 11:12:17 4.5 C 33 %
Sensor: Nr:Datum:Temp:Feuchte:
Aussen-T/F 501 06-04-2021 11:22:17 4.5 C 33 %
502 06-04-2021 11:32:17 4.5 C 34 %
503 06-04-2021 11:42:17 5 C 33 %
504 06-04-2021 11:52:17 5.4 C 32 %
505 06-04-2021 12:02:18 4.5 C 34 %
506 06-04-2021 12:12:18 3.2 C 38 %
507 06-04-2021 12:22:17 2.4 C 40 %
508 06-04-2021 12:32:17 2.4 C 41 %
509 06-04-2021 12:42:17 2.6 C 40 %
510 06-04-2021 12:52:17 4.9 C 36 %
511 06-04-2021 13:03:17 4.5 C 35 %
512 06-04-2021 13:12:17 5.5 C 33 %
513 06-04-2021 13:23:17 6.4 C 31 %
514 06-04-2021 13:32:18 7.3 C 29 %
515 06-04-2021 13:42:18 8.2 C 28 %
516 06-04-2021 13:52:17 7.2 C 28 %
517 06-04-2021 14:02:17 6.7 C 28 %
518 06-04-2021 14:12:17 6.7 C 28 %
519 06-04-2021 14:23:17 6.7 C 28 %
520 06-04-2021 14:32:18 6.7 C 28 %
521 06-04-2021 14:42:18 10.6 C 22 %
522 06-04-2021 14:52:17 11 C 22 %
523 06-04-2021 15:02:17 10.3 C 20 %
524 06-04-2021 15:12:17 6.4 C 23 %
525 06-04-2021 15:22:17 7.5 C 23 %
Sensor: Nr:Datum:Temp:Feuchte:
Aussen-T/F 526 06-04-2021 15:32:17 7 C 23 %
527 06-04-2021 15:42:17 5.6 C 31 %
528 06-04-2021 15:53:17 5.9 C 30 %
529 06-04-2021 16:03:17 6.7 C 28 %
530 06-04-2021 16:13:17 6 C 30 %
531 06-04-2021 16:23:17 6.8 C 26 %
532 06-04-2021 16:32:17 7.2 C 25 %
533 06-04-2021 16:42:18 8.1 C 28 %
534 06-04-2021 16:53:17 9.5 C 26 %
535 06-04-2021 17:03:17 6.7 C 29 %
536 06-04-2021 17:13:17 5.5 C 31 %
537 06-04-2021 17:23:17 6.7 C 28 %
538 06-04-2021 17:33:17 5.8 C 29 %
539 06-04-2021 17:43:17 8.5 C 25 %
540 06-04-2021 17:52:17 6.7 C 26 %
541 06-04-2021 18:03:17 5.6 C 28 %
542 06-04-2021 18:13:17 5.1 C 28 %
543 06-04-2021 18:23:17 5.2 C 28 %
544 06-04-2021 18:33:17 5 C 27 %
545 06-04-2021 18:43:17 4 C 32 %
546 06-04-2021 18:52:17 3.3 C 35 %
547 06-04-2021 19:03:17 2.1 C 40 %
548 06-04-2021 19:13:17 0.6 C 49 %
549 06-04-2021 19:23:17 0.6 C 49 %
550 06-04-2021 19:32:18 1 C 46 %
Sensor: Nr:Datum:Temp:Feuchte:
Aussen-T/F 551 06-04-2021 19:42:18 1 C 46 %
552 06-04-2021 19:53:17 1.1 C 45 %
553 06-04-2021 20:03:17 1.1 C 46 %
554 06-04-2021 20:13:17 0.9 C 47 %
555 06-04-2021 20:23:17 0.6 C 47 %
556 06-04-2021 20:32:18 0.6 C 46 %
557 06-04-2021 20:42:18 0.8 C 45 %
558 06-04-2021 20:53:17 1 C 42 %
559 06-04-2021 21:03:17 1 C 42 %
560 06-04-2021 21:13:17 0.9 C 43 %
561 06-04-2021 21:23:17 1.1 C 42 %
562 06-04-2021 21:32:18 1 C 42 %
563 06-04-2021 21:42:18 1 C 42 %
564 06-04-2021 21:53:17 1 C 42 %
565 06-04-2021 22:03:17 1.1 C 42 %
566 06-04-2021 22:13:17 1.1 C 42 %
567 06-04-2021 22:23:17 1.2 C 41 %
568 06-04-2021 22:33:17 1.2 C 40 %
569 06-04-2021 22:43:17 1.2 C 40 %
570 06-04-2021 22:53:17 1.2 C 40 %
571 06-04-2021 23:03:17 1.2 C 41 %
572 06-04-2021 23:13:17 1 C 41 %
573 06-04-2021 23:23:17 0.7 C 43 %
574 06-04-2021 23:32:18 0.9 C 42 %
575 06-04-2021 23:42:18 0.7 C 42 %
Sensor: Nr:Datum:Temp:Feuchte:
Aussen-T/F 576 06-04-2021 23:53:18 0.7 C 42 %
577 07-04-2021 00:03:17 0.9 C 42 %
578 07-04-2021 00:13:17 1 C 41 %
579 07-04-2021 00:23:17 1 C 41 %
580 07-04-2021 00:33:17 1 C 41 %
581 07-04-2021 00:43:17 1 C 41 %
582 07-04-2021 00:53:17 1 C 41 %
583 07-04-2021 01:03:17 1 C 41 %
584 07-04-2021 01:13:18 0.9 C 41 %
585 07-04-2021 01:23:17 0.8 C 41 %
586 07-04-2021 01:33:17 0.5 C 42 %
587 07-04-2021 01:43:17 0.8 C 42 %
588 07-04-2021 01:53:18 0.9 C 42 %
589 07-04-2021 02:03:17 0.9 C 42 %
590 07-04-2021 02:13:17 0.9 C 42 %
591 07-04-2021 02:23:17 0.8 C 42 %
592 07-04-2021 02:33:17 0.8 C 42 %
593 07-04-2021 02:43:17 0.6 C 42 %
594 07-04-2021 02:53:18 0.6 C 42 %
595 07-04-2021 03:03:17 0.4 C 42 %
596 07-04-2021 03:13:17 0.1 C 42 %
597 07-04-2021 03:23:17 0 C 42 %
598 07-04-2021 03:33:17 0 C 42 %
599 07-04-2021 03:43:17 -0.2 C 42 %
600 07-04-2021 03:53:17 -0.2 C 42 %
Sensor: Nr:Datum:Temp:Feuchte:
Aussen-T/F 601 07-04-2021 04:03:17 -0.4 C 42 %
602 07-04-2021 04:13:17 -0.4 C 42 %
603 07-04-2021 04:23:17 -0.9 C 43 %
604 07-04-2021 04:33:17 -0.9 C 44 %
605 07-04-2021 04:43:17 -0.7 C 43 %
606 07-04-2021 04:53:17 -0.5 C 43 %
607 07-04-2021 05:03:18 0 C 42 %
608 07-04-2021 05:13:18 0 C 42 %
609 07-04-2021 05:23:17 0.1 C 42 %
610 07-04-2021 05:33:17 -0.1 C 42 %
611 07-04-2021 05:43:17 -0.5 C 42 %
612 07-04-2021 05:53:18 -0.8 C 43 %
613 07-04-2021 06:03:17 -0.6 C 42 %
614 07-04-2021 06:13:17 -0.7 C 43 %
615 07-04-2021 06:23:17 -0.4 C 42 %
616 07-04-2021 06:33:17 -0.2 C 42 %
617 07-04-2021 06:43:17 -0.1 C 42 %
618 07-04-2021 06:53:17 0 C 42 %
619 07-04-2021 07:03:17 -0.2 C 43 %
620 07-04-2021 07:13:18 -0.1 C 43 %
621 07-04-2021 07:23:17 -0.2 C 44 %
622 07-04-2021 07:33:17 -0.1 C 44 %
623 07-04-2021 07:43:17 0 C 44 %
624 07-04-2021 07:53:17 0.3 C 44 %
625 07-04-2021 08:03:17 0.4 C 43 %
Sensor: Nr:Datum:Temp:Feuchte:
Aussen-T/F 626 07-04-2021 08:13:17 0.2 C 44 %
627 07-04-2021 08:23:17 0.7 C 43 %
628 07-04-2021 08:33:17 1 C 42 %
629 07-04-2021 08:43:17 1.4 C 41 %
630 07-04-2021 08:53:17 1.5 C 41 %
631 07-04-2021 09:03:17 1.5 C 41 %
632 07-04-2021 09:13:17 1.5 C 41 %
633 07-04-2021 09:23:17 1.6 C 42 %
634 07-04-2021 09:33:17 2.1 C 40 %
635 07-04-2021 09:43:17 2.1 C 40 %
636 07-04-2021 09:53:17 2.4 C 40 %
637 07-04-2021 10:03:17 2.6 C 39 %
638 07-04-2021 10:13:17 2.6 C 39 %
639 07-04-2021 10:23:17 3 C 37 %
640 07-04-2021 10:33:17 3.2 C 37 %
641 07-04-2021 10:43:17 3.1 C 37 %
642 07-04-2021 10:53:17 2.3 C 39 %
643 07-04-2021 11:03:16 2.2 C 39 %
644 07-04-2021 11:13:16 1.5 C 42 %
645 07-04-2021 11:23:17 1.6 C 41 %
646 07-04-2021 11:33:17 1.7 C 41 %
647 07-04-2021 11:43:17 2.3 C 40 %
648 07-04-2021 11:53:16 2.8 C 39 %
649 07-04-2021 12:03:17 3 C 38 %
650 07-04-2021 12:13:17 3.1 C 37 %
Sensor: Nr:Datum:Temp:Feuchte:
Aussen-T/F 651 07-04-2021 12:23:17 2.6 C 39 %
652 07-04-2021 12:33:16 3.1 C 38 %
653 07-04-2021 12:43:16 3.1 C 38 %
654 07-04-2021 12:53:16 2.7 C 41 %
655 07-04-2021 13:03:17 2.4 C 40 %
656 07-04-2021 13:13:17 2.1 C 41 %
657 07-04-2021 13:23:17 1.2 C 45 %
658 07-04-2021 13:33:17 0.8 C 48 %
659 07-04-2021 13:43:17 0.9 C 49 %
660 07-04-2021 13:53:16 0.8 C 50 %
661 07-04-2021 14:03:17 0.9 C 50 %
662 07-04-2021 14:13:17 1 C 48 %
663 07-04-2021 14:23:16 0.8 C 50 %
664 07-04-2021 14:33:17 0.9 C 51 %
665 07-04-2021 14:43:17 1.1 C 50 %
666 07-04-2021 14:53:17 1.4 C 50 %
667 07-04-2021 15:03:16 1.7 C 49 %
668 07-04-2021 15:13:16 2.1 C 49 %
669 07-04-2021 15:23:17 2.5 C 48 %
670 07-04-2021 15:33:17 3 C 45 %
671 07-04-2021 15:43:17 3.4 C 43 %
672 07-04-2021 15:53:16 3.7 C 43 %
673 07-04-2021 16:03:17 4.1 C 40 %
674 07-04-2021 16:13:17 4.4 C 41 %
675 07-04-2021 16:23:16 4.5 C 40 %
Sensor: Nr:Datum:Temp:Feuchte:
Aussen-T/F 676 07-04-2021 16:33:16 4.5 C 40 %
677 07-04-2021 16:43:16 4.8 C 39 %
678 07-04-2021 16:53:16 5.1 C 38 %
679 07-04-2021 17:03:17 5.2 C 38 %
680 07-04-2021 17:13:17 5.2 C 37 %
681 07-04-2021 17:23:17 5 C 37 %
682 07-04-2021 17:33:16 5 C 37 %
683 07-04-2021 17:43:16 5 C 37 %
684 07-04-2021 17:53:17 5 C 37 %
685 07-04-2021 18:03:16 5.2 C 36 %
686 07-04-2021 18:13:16 5 C 36 %
687 07-04-2021 18:23:17 4.9 C 37 %
688 07-04-2021 18:33:16 4.8 C 37 %
689 07-04-2021 18:43:16 4.7 C 37 %
690 07-04-2021 18:53:16 4.5 C 37 %
691 07-04-2021 19:03:17 4.4 C 37 %
692 07-04-2021 19:13:17 4.5 C 36 %
693 07-04-2021 19:23:16 4.5 C 36 %
694 07-04-2021 19:33:16 4.3 C 36 %
695 07-04-2021 19:43:16 4.3 C 36 %
696 07-04-2021 19:53:16 4.2 C 36 %
697 07-04-2021 20:03:16 4.1 C 36 %
698 07-04-2021 20:13:16 4 C 36 %
699 07-04-2021 20:23:16 3.7 C 37 %
700 07-04-2021 20:33:16 3.7 C 37 %
Sensor: Nr:Datum:Temp:Feuchte:
Aussen-T/F 701 07-04-2021 20:43:16 3.8 C 36 %
702 07-04-2021 20:53:16 3.8 C 36 %
703 07-04-2021 21:03:16 3.5 C 36 %
704 07-04-2021 21:13:16 3.5 C 36 %
705 07-04-2021 21:23:16 3.4 C 36 %
706 07-04-2021 21:33:16 3 C 36 %
707 07-04-2021 21:43:16 2.9 C 36 %
708 07-04-2021 21:53:16 2.7 C 36 %
709 07-04-2021 22:03:16 2.6 C 36 %
710 07-04-2021 22:13:16 1.8 C 37 %
711 07-04-2021 22:23:16 1.8 C 39 %
712 07-04-2021 22:33:16 2.1 C 37 %
713 07-04-2021 22:43:16 2.2 C 36 %
714 07-04-2021 22:53:17 2 C 37 %
715 07-04-2021 23:03:16 2 C 36 %
716 07-04-2021 23:13:16 2.1 C 35 %
717 07-04-2021 23:23:16 2 C 36 %
718 07-04-2021 23:33:16 2.1 C 36 %
719 07-04-2021 23:43:16 2 C 35 %
720 07-04-2021 23:53:16 2 C 36 %
721 08-04-2021 00:03:16 2 C 36 %
722 08-04-2021 00:13:16 2 C 36 %
723 08-04-2021 00:23:16 2 C 36 %
724 08-04-2021 00:33:16 2.1 C 36 %
725 08-04-2021 00:43:16 2.1 C 36 %
Sensor: Nr:Datum:Temp:Feuchte:
Aussen-T/F 726 08-04-2021 00:53:16 2.1 C 36 %
727 08-04-2021 01:03:16 2.1 C 36 %
728 08-04-2021 01:13:16 2.1 C 36 %
729 08-04-2021 01:23:16 2.1 C 36 %
730 08-04-2021 01:33:16 1.9 C 37 %
731 08-04-2021 01:43:17 2 C 36 %
732 08-04-2021 01:53:16 2 C 36 %
733 08-04-2021 02:03:16 1.9 C 37 %
734 08-04-2021 02:13:16 1.8 C 37 %
735 08-04-2021 02:23:16 1.7 C 38 %
736 08-04-2021 02:33:15 1.7 C 38 %
737 08-04-2021 02:43:15 1.9 C 38 %
738 08-04-2021 02:53:17 1.8 C 38 %
739 08-04-2021 03:03:17 1.7 C 39 %
740 08-04-2021 03:13:17 1.7 C 38 %
741 08-04-2021 03:23:17 1.6 C 39 %
742 08-04-2021 03:33:18 1.3 C 39 %
743 08-04-2021 03:43:18 1 C 40 %
744 08-04-2021 03:53:17 1.1 C 40 %
745 08-04-2021 04:03:17 1 C 40 %
746 08-04-2021 04:13:17 1.2 C 40 %
747 08-04-2021 04:23:17 1.1 C 40 %
748 08-04-2021 04:33:17 1.2 C 40 %
749 08-04-2021 04:43:17 1.2 C 40 %
750 08-04-2021 04:53:17 1.4 C 40 %
Sensor: Nr:Datum:Temp:Feuchte:
Aussen-T/F 751 08-04-2021 05:03:18 1.2 C 40 %
752 08-04-2021 05:13:18 1.1 C 40 %
753 08-04-2021 05:23:17 0.9 C 41 %
754 08-04-2021 05:33:17 0.8 C 42 %
755 08-04-2021 05:43:17 0.7 C 42 %
756 08-04-2021 05:53:18 0.8 C 42 %
757 08-04-2021 06:03:17 0.7 C 43 %
758 08-04-2021 06:13:17 1 C 41 %
759 08-04-2021 06:23:17 1 C 41 %
760 08-04-2021 06:33:17 0.8 C 42 %
761 08-04-2021 06:43:17 0.8 C 43 %
762 08-04-2021 06:53:18 1.1 C 40 %
763 08-04-2021 07:03:17 1.1 C 41 %
764 08-04-2021 07:13:17 1.1 C 41 %
765 08-04-2021 07:23:17 1 C 41 %
766 08-04-2021 07:33:17 0.9 C 42 %
767 08-04-2021 07:43:17 1.1 C 41 %
768 08-04-2021 07:53:17 1.4 C 40 %
769 08-04-2021 08:03:18 1.6 C 40 %
770 08-04-2021 08:13:18 1.9 C 40 %
771 08-04-2021 08:23:18 2.2 C 39 %
772 08-04-2021 08:33:17 2.3 C 38 %
773 08-04-2021 08:43:17 2.4 C 38 %
774 08-04-2021 08:53:17 2.9 C 38 %
775 08-04-2021 09:03:17 2.8 C 38 %
Sensor: Nr:Datum:Temp:Feuchte:
Aussen-T/F 776 08-04-2021 09:13:17 2.8 C 38 %
777 08-04-2021 09:23:17 2.9 C 38 %
778 08-04-2021 09:33:18 3.5 C 37 %
779 08-04-2021 09:43:18 3.8 C 37 %
780 08-04-2021 09:53:17 3.5 C 36 %
781 08-04-2021 10:03:17 3.4 C 36 %
782 08-04-2021 10:13:17 3.6 C 36 %
783 08-04-2021 10:23:17 3.7 C 36 %
784 08-04-2021 10:33:17 4.2 C 35 %
785 08-04-2021 10:43:17 4.5 C 35 %
786 08-04-2021 10:53:17 5.6 C 33 %
787 08-04-2021 11:03:17 5.7 C 32 %
788 08-04-2021 11:13:17 6.4 C 32 %
789 08-04-2021 11:23:17 6.5 C 30 %
790 08-04-2021 11:33:17 5.9 C 30 %
791 08-04-2021 11:43:17 7.2 C 28 %
792 08-04-2021 11:53:17 5.8 C 27 %
793 08-04-2021 12:03:17 9.1 C 25 %
794 08-04-2021 12:13:17 9.3 C 20 %
795 08-04-2021 12:23:17 9.1 C 20 %
796 08-04-2021 12:33:17 7.1 C 25 %
797 08-04-2021 12:43:17 9.2 C 25 %
798 08-04-2021 12:53:17 8.9 C 25 %
799 08-04-2021 13:03:17 8.3 C 25 %
800 08-04-2021 13:13:17 9.3 C 25 %
Sensor: Nr:Datum:Temp:Feuchte:
Aussen-T/F 801 08-04-2021 13:23:17 9 C 21 %
802 08-04-2021 13:33:17 8.5 C 25 %
803 08-04-2021 13:43:17 9.3 C 23 %
804 08-04-2021 13:53:17 9 C 25 %
805 08-04-2021 14:03:17 9.4 C 25 %
806 08-04-2021 14:13:17 8.1 C 23 %
807 08-04-2021 14:23:17 8.2 C 23 %
808 08-04-2021 14:33:17 11.3 C 20 %
809 08-04-2021 14:43:17 11.7 C 20 %
810 08-04-2021 14:53:17 15.3 C 20 %
811 08-04-2021 15:03:17 11.8 C 20 %
812 08-04-2021 15:13:17 12.2 C 20 %
813 08-04-2021 15:23:17 12.5 C 20 %
814 08-04-2021 15:33:17 12.3 C 20 %
815 08-04-2021 15:43:18 14.4 C 20 %
816 08-04-2021 15:53:17 13.8 C 20 %
817 08-04-2021 16:03:17 13.7 C 20 %
818 08-04-2021 16:13:17 13.7 C 20 %
819 08-04-2021 16:23:17 12.3 C 20 %
820 08-04-2021 16:33:17 13 C 20 %
821 08-04-2021 16:43:17 14.6 C 20 %
822 08-04-2021 16:53:18 14.2 C 20 %
823 08-04-2021 17:03:17 14.8 C 20 %
824 08-04-2021 17:13:18 14.4 C 20 %
825 08-04-2021 17:23:17 13.5 C 20 %
Sensor: Nr:Datum:Temp:Feuchte:
Aussen-T/F 826 08-04-2021 17:33:17 14.7 C 20 %
827 08-04-2021 17:43:17 13.3 C 20 %
828 08-04-2021 17:53:17 12.7 C 20 %
829 08-04-2021 18:03:17 10.5 C 20 %
830 08-04-2021 18:13:17 10.4 C 20 %
831 08-04-2021 18:23:17 9.9 C 20 %
832 08-04-2021 18:33:17 9.8 C 21 %
833 08-04-2021 18:43:17 10 C 20 %
834 08-04-2021 18:53:17 9.8 C 20 %
835 08-04-2021 19:03:17 9.3 C 20 %
836 08-04-2021 19:13:17 9.3 C 20 %
837 08-04-2021 19:23:17 9 C 20 %
838 08-04-2021 19:33:17 8.9 C 23 %
839 08-04-2021 19:43:17 8.3 C 26 %
840 08-04-2021 19:53:17 7.2 C 27 %
841 08-04-2021 20:03:17 6.4 C 30 %
842 08-04-2021 20:13:17 5.8 C 31 %
843 08-04-2021 20:23:17 5.3 C 32 %
844 08-04-2021 20:33:17 5.1 C 32 %
845 08-04-2021 20:43:17 4.8 C 32 %
846 08-04-2021 20:53:18 4.7 C 33 %
847 08-04-2021 21:03:17 4.6 C 33 %
848 08-04-2021 21:13:17 4.6 C 32 %
849 08-04-2021 21:23:17 4.1 C 34 %
850 08-04-2021 21:33:17 3.6 C 36 %
Sensor: Nr:Datum:Temp:Feuchte:
Aussen-T/F 851 08-04-2021 21:43:17 3.1 C 37 %
852 08-04-2021 21:53:17 2.6 C 38 %
853 08-04-2021 22:03:18 2.2 C 39 %
854 08-04-2021 22:13:18 2.1 C 40 %
855 08-04-2021 22:23:17 2.1 C 39 %
856 08-04-2021 22:33:17 1.8 C 41 %
857 08-04-2021 22:43:17 1.5 C 41 %
858 08-04-2021 22:53:18 1.3 C 41 %
859 08-04-2021 23:03:17 1.1 C 41 %
860 08-04-2021 23:13:17 0.7 C 42 %
861 08-04-2021 23:23:17 0.6 C 43 %
862 08-04-2021 23:33:18 0.5 C 43 %
863 08-04-2021 23:43:18 0.4 C 43 %
864 08-04-2021 23:53:17 0.2 C 44 %
865 09-04-2021 00:03:17 0.4 C 45 %
866 09-04-2021 00:13:17 0.4 C 45 %
867 09-04-2021 00:23:17 0.4 C 45 %
868 09-04-2021 00:33:18 0.7 C 44 %
869 09-04-2021 00:43:18 0.6 C 45 %
870 09-04-2021 00:53:17 0.4 C 45 %
871 09-04-2021 01:03:17 0.3 C 44 %
872 09-04-2021 01:13:17 0.2 C 44 %
873 09-04-2021 01:23:17 -0.1 C 44 %
874 09-04-2021 01:33:17 -0.1 C 45 %
875 09-04-2021 01:43:17 -0.4 C 45 %
Sensor: Nr:Datum:Temp:Feuchte:
Aussen-T/F 876 09-04-2021 01:53:18 -0.4 C 45 %
877 09-04-2021 02:03:17 -0.5 C 45 %
878 09-04-2021 02:13:17 -0.4 C 45 %
879 09-04-2021 02:23:17 -0.8 C 44 %
880 09-04-2021 02:33:17 -1 C 45 %
881 09-04-2021 02:43:17 -1.1 C 46 %
882 09-04-2021 02:53:18 -0.7 C 46 %
883 09-04-2021 03:03:17 -1.2 C 46 %
884 09-04-2021 03:13:17 -1.3 C 46 %
885 09-04-2021 03:23:17 -1.1 C 47 %
886 09-04-2021 03:33:17 -1.3 C 46 %
887 09-04-2021 03:43:17 -1.2 C 47 %
888 09-04-2021 03:53:18 -1.5 C 46 %
889 09-04-2021 04:03:17 -1.5 C 47 %
890 09-04-2021 04:13:17 -1.8 C 46 %
891 09-04-2021 04:23:17 -1.5 C 47 %
892 09-04-2021 04:33:17 -1.7 C 46 %
893 09-04-2021 04:43:17 -1.9 C 47 %
894 09-04-2021 04:53:17 -1.8 C 47 %
895 09-04-2021 05:03:18 -1.7 C 47 %
896 09-04-2021 05:13:18 -1.4 C 47 %
897 09-04-2021 05:23:17 -1.7 C 47 %
898 09-04-2021 05:33:17 -1.5 C 47 %
899 09-04-2021 05:43:17 -2 C 46 %
900 09-04-2021 05:53:17 -2 C 47 %
Sensor: Nr:Datum:Temp:Feuchte:
Aussen-T/F 901 09-04-2021 06:03:18 -1.7 C 48 %
902 09-04-2021 06:13:18 -1.5 C 48 %
903 09-04-2021 06:23:17 -1.6 C 47 %
904 09-04-2021 06:33:18 -1.9 C 47 %
905 09-04-2021 06:43:18 -1.9 C 47 %
906 09-04-2021 06:53:17 -1.9 C 47 %
907 09-04-2021 07:03:17 -1.9 C 47 %
908 09-04-2021 07:13:17 -1.5 C 47 %
909 09-04-2021 07:23:17 -1.2 C 47 %
910 09-04-2021 07:33:18 -1.1 C 47 %
911 09-04-2021 07:43:18 -0.9 C 47 %
912 09-04-2021 07:53:17 -0.6 C 47 %
913 09-04-2021 08:03:17 -0.4 C 46 %
914 09-04-2021 08:13:17 0 C 46 %
915 09-04-2021 08:23:17 0.6 C 45 %
916 09-04-2021 08:33:17 1.1 C 42 %
917 09-04-2021 08:43:17 1.4 C 42 %
918 09-04-2021 08:53:17 1.9 C 42 %
919 09-04-2021 09:03:17 2.4 C 40 %
920 09-04-2021 09:13:17 3.2 C 40 %
921 09-04-2021 09:23:17 4 C 37 %
922 09-04-2021 09:33:17 4.4 C 37 %
923 09-04-2021 09:43:17 4.5 C 36 %
924 09-04-2021 09:53:18 4.8 C 36 %
925 09-04-2021 10:03:17 5.2 C 35 %
Sensor: Nr:Datum:Temp:Feuchte:
Aussen-T/F 926 09-04-2021 10:13:17 5.6 C 35 %
927 09-04-2021 10:23:17 6.2 C 35 %
928 09-04-2021 10:33:17 7 C 34 %
929 09-04-2021 10:43:17 8 C 32 %
930 09-04-2021 10:53:17 8.7 C 31 %
931 09-04-2021 11:03:17 9.6 C 30 %
932 09-04-2021 11:13:17 10.8 C 27 %
933 09-04-2021 11:23:17 11.3 C 26 %
934 09-04-2021 11:33:18 11.4 C 25 %
935 09-04-2021 11:43:18 12.8 C 24 %
936 09-04-2021 11:53:17 12.8 C 23 %
937 09-04-2021 12:03:17 12.8 C 21 %
938 09-04-2021 12:13:17 13.5 C 21 %
939 09-04-2021 12:23:17 13.9 C 20 %
940 09-04-2021 12:33:17 14.7 C 20 %
941 09-04-2021 12:43:17 13.8 C 20 %
942 09-04-2021 12:53:18 15.1 C 20 %
943 09-04-2021 13:03:17 14.8 C 20 %
944 09-04-2021 13:13:17 15 C 20 %
945 09-04-2021 13:23:17 14.1 C 20 %
946 09-04-2021 13:33:17 14.1 C 20 %
947 09-04-2021 13:43:17 14.9 C 20 %
948 09-04-2021 13:53:17 14.4 C 20 %
949 09-04-2021 14:03:17 15.6 C 20 %
950 09-04-2021 14:13:18 15.8 C 20 %
Sensor: Nr:Datum:Temp:Feuchte:
Aussen-T/F 951 09-04-2021 14:23:17 15 C 20 %
952 09-04-2021 14:33:17 15.7 C 20 %
953 09-04-2021 14:43:17 15.8 C 20 %
954 09-04-2021 14:53:17 16.5 C 20 %
955 09-04-2021 15:03:17 16.8 C 20 %
956 09-04-2021 15:13:18 15.3 C 20 %
957 09-04-2021 15:23:17 15.4 C 20 %
958 09-04-2021 15:33:17 16.7 C 20 %
959 09-04-2021 15:43:17 16.5 C 20 %
960 09-04-2021 15:53:18 16.5 C 20 %
961 09-04-2021 16:03:17 16.6 C 20 %
962 09-04-2021 16:13:17 17 C 20 %
963 09-04-2021 16:23:17 16.6 C 20 %
964 09-04-2021 16:33:17 17.5 C 20 %
965 09-04-2021 16:43:17 16.7 C 20 %
966 09-04-2021 16:53:17 17.1 C 20 %
967 09-04-2021 17:03:17 17.3 C 20 %
968 09-04-2021 17:13:17 18.2 C 20 %
969 09-04-2021 17:23:17 17.6 C 20 %
970 09-04-2021 17:33:18 17.7 C 20 %
971 09-04-2021 17:43:18 17.8 C 20 %
972 09-04-2021 17:53:17 16.1 C 20 %
973 09-04-2021 18:03:17 16.2 C 20 %
974 09-04-2021 18:13:17 16 C 20 %
975 09-04-2021 18:23:18 16.2 C 20 %
Sensor: Nr:Datum:Temp:Feuchte:
Aussen-T/F 976 09-04-2021 18:33:17 16 C 20 %
977 09-04-2021 18:43:17 16 C 20 %
978 09-04-2021 18:53:17 16 C 20 %
979 09-04-2021 19:03:17 15.5 C 20 %
980 09-04-2021 19:13:17 14.6 C 20 %
981 09-04-2021 19:23:17 13.5 C 22 %
982 09-04-2021 19:33:17 13.2 C 20 %
983 09-04-2021 19:43:17 13.1 C 21 %
984 09-04-2021 19:53:18 12.7 C 23 %
985 09-04-2021 20:03:17 12.5 C 23 %
986 09-04-2021 20:13:17 12.1 C 25 %
987 09-04-2021 20:23:17 12 C 25 %
988 09-04-2021 20:33:17 12.3 C 21 %
989 09-04-2021 20:43:17 13.2 C 21 %
990 09-04-2021 20:53:17 13 C 23 %
991 09-04-2021 21:03:17 13 C 23 %
992 09-04-2021 21:13:17 12.8 C 25 %
993 09-04-2021 21:23:17 12.3 C 26 %
994 09-04-2021 21:33:17 11.9 C 27 %
995 09-04-2021 21:43:17 11.5 C 28 %
996 09-04-2021 21:53:17 11.5 C 29 %
997 09-04-2021 22:03:18 11.5 C 28 %
998 09-04-2021 22:13:18 11.4 C 29 %
999 09-04-2021 22:23:18 11.5 C 29 %
1000 09-04-2021 22:33:17 11.2 C 29 %
Sensor: Nr:Datum:Temp:Feuchte:
Aussen-T/F 1001 09-04-2021 22:43:17 11 C 30 %
1002 09-04-2021 22:53:17 9.6 C 37 %
1003 09-04-2021 23:03:18 9.4 C 39 %
1004 09-04-2021 23:13:18 8.9 C 43 %
1005 09-04-2021 23:23:17 8.5 C 45 %
1006 09-04-2021 23:33:17 8.4 C 46 %
1007 09-04-2021 23:43:17 8.3 C 47 %
1008 09-04-2021 23:53:18 8.2 C 47 %
1009 10-04-2021 00:03:17 8.1 C 47 %
1010 10-04-2021 00:13:17 8.1 C 47 %
1011 10-04-2021 00:23:17 8.1 C 47 %
1012 10-04-2021 00:33:18 8.1 C 47 %
1013 10-04-2021 00:43:18 8.1 C 47 %
1014 10-04-2021 00:53:17 8 C 47 %
1015 10-04-2021 01:03:17 7.9 C 48 %
1016 10-04-2021 01:13:17 8 C 47 %
1017 10-04-2021 01:23:17 8 C 47 %
1018 10-04-2021 01:33:17 8 C 47 %
1019 10-04-2021 01:43:17 8 C 47 %
1020 10-04-2021 01:53:18 8 C 47 %
1021 10-04-2021 02:03:17 8 C 47 %
1022 10-04-2021 02:13:17 8 C 47 %
1023 10-04-2021 02:23:17 8 C 47 %
1024 10-04-2021 02:33:17 8 C 47 %
1025 10-04-2021 02:43:17 7.9 C 47 %
Sensor: Nr:Datum:Temp:Feuchte:
Aussen-T/F 1026 10-04-2021 02:53:17 7.9 C 47 %
1027 10-04-2021 03:03:17 7.9 C 47 %
1028 10-04-2021 03:13:17 7.9 C 47 %
1029 10-04-2021 03:23:17 7.9 C 47 %
1030 10-04-2021 03:33:17 7.9 C 47 %
1031 10-04-2021 03:43:17 7.6 C 47 %
1032 10-04-2021 03:53:17 7.7 C 47 %
1033 10-04-2021 04:03:17 7.7 C 47 %
1034 10-04-2021 04:13:17 7.7 C 47 %
1035 10-04-2021 04:23:17 7.7 C 47 %
1036 10-04-2021 04:33:17 7.7 C 47 %
1037 10-04-2021 04:43:17 7.6 C 47 %
1038 10-04-2021 04:53:17 7.6 C 47 %
1039 10-04-2021 05:03:17 7.6 C 47 %
1040 10-04-2021 05:13:17 7.6 C 47 %
1041 10-04-2021 05:23:17 7.5 C 47 %
1042 10-04-2021 05:33:17 7.5 C 46 %
1043 10-04-2021 05:43:17 7.5 C 46 %
1044 10-04-2021 05:53:17 7.5 C 46 %
1045 10-04-2021 06:03:17 7.5 C 46 %
1046 10-04-2021 06:13:17 7.5 C 46 %
1047 10-04-2021 06:23:17 7.5 C 46 %
1048 10-04-2021 06:33:17 7.6 C 46 %
1049 10-04-2021 06:43:17 7.6 C 46 %
1050 10-04-2021 06:53:18 7.5 C 46 %
Sensor: Nr:Datum:Temp:Feuchte:
Aussen-T/F 1051 10-04-2021 07:03:17 7.5 C 46 %
1052 10-04-2021 07:13:17 7.5 C 46 %
1053 10-04-2021 07:23:17 7.5 C 46 %
1054 10-04-2021 07:33:17 7.6 C 46 %
1055 10-04-2021 07:43:17 7.6 C 46 %
1056 10-04-2021 07:53:17 7.8 C 46 %
1057 10-04-2021 08:03:17 8.1 C 46 %
1058 10-04-2021 08:13:17 8.2 C 46 %
1059 10-04-2021 08:23:17 8.1 C 46 %
1060 10-04-2021 08:33:17 8.3 C 46 %
1061 10-04-2021 08:43:17 8.4 C 46 %
1062 10-04-2021 08:53:18 8.4 C 46 %
1063 10-04-2021 09:03:17 8.6 C 46 %
1064 10-04-2021 09:13:17 8.6 C 44 %
1065 10-04-2021 09:23:17 8.9 C 45 %
1066 10-04-2021 09:33:18 9.1 C 44 %
1067 10-04-2021 09:43:18 9.5 C 43 %
1068 10-04-2021 09:53:17 9.2 C 43 %
1069 10-04-2021 10:03:17 9.3 C 44 %
1070 10-04-2021 10:13:17 9.5 C 44 %
1071 10-04-2021 10:23:17 9.6 C 44 %
1072 10-04-2021 10:33:17 9.8 C 43 %
1073 10-04-2021 10:43:17 9.8 C 44 %
1074 10-04-2021 10:53:17 9.5 C 42 %
1075 10-04-2021 11:03:17 9.2 C 42 %
Sensor: Nr:Datum:Temp:Feuchte:
Aussen-T/F 1076 10-04-2021 11:13:17 9.5 C 42 %
1077 10-04-2021 11:23:17 9.7 C 42 %
1078 10-04-2021 11:33:17 9.4 C 41 %
1079 10-04-2021 11:43:17 9.5 C 42 %
1080 10-04-2021 11:53:17 9.7 C 41 %
1081 10-04-2021 12:03:17 9.5 C 42 %
1082 10-04-2021 12:13:17 9.8 C 42 %
1083 10-04-2021 12:23:17 10.1 C 41 %
1084 10-04-2021 12:33:17 10.2 C 41 %
1085 10-04-2021 12:43:17 10 C 41 %
1086 10-04-2021 12:53:17 10 C 40 %
1087 10-04-2021 13:03:17 10 C 41 %
1088 10-04-2021 13:13:17 9.7 C 42 %
1089 10-04-2021 13:23:17 9.8 C 42 %
1090 10-04-2021 13:33:18 9.8 C 42 %
1091 10-04-2021 13:43:18 10.1 C 42 %
1092 10-04-2021 13:53:17 10.1 C 41 %
1093 10-04-2021 14:03:17 10 C 41 %
1094 10-04-2021 14:13:17 10.1 C 42 %
1095 10-04-2021 14:23:17 10.1 C 42 %
1096 10-04-2021 14:33:17 10.3 C 43 %
1097 10-04-2021 14:43:17 10.3 C 43 %
1098 10-04-2021 14:53:17 10.1 C 42 %
1099 10-04-2021 15:03:17 10.3 C 43 %
1100 10-04-2021 15:13:17 10 C 42 %
Sensor: Nr:Datum:Temp:Feuchte:
Aussen-T/F 1101 10-04-2021 15:23:17 10.2 C 41 %
1102 10-04-2021 15:33:17 10.1 C 41 %
1103 10-04-2021 15:43:17 10.2 C 42 %
1104 10-04-2021 15:53:17 10.2 C 42 %
1105 10-04-2021 16:03:17 10.3 C 42 %
1106 10-04-2021 16:13:17 10.7 C 41 %
1107 10-04-2021 16:23:17 10.4 C 41 %
1108 10-04-2021 16:33:18 10.3 C 41 %
1109 10-04-2021 16:43:18 10.3 C 42 %
1110 10-04-2021 16:53:17 10.2 C 42 %
1111 10-04-2021 17:03:17 10.2 C 42 %
1112 10-04-2021 17:13:17 10.5 C 42 %
1113 10-04-2021 17:23:17 10.3 C 42 %
1114 10-04-2021 17:33:17 10.1 C 43 %
1115 10-04-2021 17:43:17 10.1 C 45 %
1116 10-04-2021 17:53:18 10 C 45 %
1117 10-04-2021 18:03:17 10 C 45 %
1118 10-04-2021 18:13:17 9.9 C 45 %
1119 10-04-2021 18:23:17 9.8 C 46 %
1120 10-04-2021 18:33:17 9.9 C 46 %
1121 10-04-2021 18:43:17 9.6 C 45 %
1122 10-04-2021 18:53:17 9.6 C 46 %
1123 10-04-2021 19:03:17 9.5 C 46 %
1124 10-04-2021 19:13:17 9.3 C 46 %
1125 10-04-2021 19:23:17 9.2 C 46 %
Sensor: Nr:Datum:Temp:Feuchte:
Aussen-T/F 1126 10-04-2021 19:33:17 9.1 C 47 %
1127 10-04-2021 19:43:18 9 C 47 %
1128 10-04-2021 19:53:17 9 C 47 %
1129 10-04-2021 20:03:17 8.9 C 48 %
1130 10-04-2021 20:13:17 8.9 C 48 %
1131 10-04-2021 20:23:17 8.8 C 48 %
1132 10-04-2021 20:33:17 8.7 C 47 %
1133 10-04-2021 20:43:17 8.7 C 47 %
1134 10-04-2021 20:53:18 8.6 C 47 %
1135 10-04-2021 21:03:17 8.6 C 47 %
1136 10-04-2021 21:13:17 8.6 C 47 %
1137 10-04-2021 21:23:17 8.5 C 47 %
1138 10-04-2021 21:33:17 8.5 C 47 %
1139 10-04-2021 21:43:17 8.5 C 47 %
1140 10-04-2021 21:53:18 8.5 C 47 %
1141 10-04-2021 22:03:18 8.4 C 47 %
1142 10-04-2021 22:13:18 8.4 C 47 %
1143 10-04-2021 22:23:18 8.4 C 47 %
1144 10-04-2021 22:33:17 8.4 C 47 %
1145 10-04-2021 22:43:17 8.4 C 47 %
1146 10-04-2021 22:53:17 8.3 C 47 %
1147 10-04-2021 23:03:17 8.3 C 47 %
1148 10-04-2021 23:13:17 8.4 C 47 %
1149 10-04-2021 23:23:17 8.3 C 47 %
1150 10-04-2021 23:33:18 8.3 C 47 %
Sensor: Nr:Datum:Temp:Feuchte:
Aussen-T/F 1151 10-04-2021 23:43:18 8.3 C 47 %
1152 10-04-2021 23:53:18 8.2 C 47 %
1153 11-04-2021 00:03:17 8.2 C 47 %
1154 11-04-2021 00:13:17 8.2 C 47 %
1155 11-04-2021 00:23:17 8.2 C 47 %
1156 11-04-2021 00:33:17 8.1 C 47 %
1157 11-04-2021 00:43:17 8.2 C 47 %
1158 11-04-2021 00:53:17 8.2 C 47 %
1159 11-04-2021 01:03:17 8.2 C 47 %
1160 11-04-2021 01:13:17 8.2 C 47 %
1161 11-04-2021 01:23:17 8.2 C 47 %
1162 11-04-2021 01:33:18 8.4 C 47 %
1163 11-04-2021 01:43:18 8.5 C 47 %
1164 11-04-2021 01:53:17 8.5 C 47 %
1165 11-04-2021 02:03:17 8.5 C 47 %
1166 11-04-2021 02:13:17 8.5 C 47 %
1167 11-04-2021 02:23:17 8.6 C 47 %
1168 11-04-2021 02:33:17 8.6 C 47 %
1169 11-04-2021 02:43:17 8.9 C 47 %
1170 11-04-2021 02:53:18 8.7 C 47 %
1171 11-04-2021 03:03:17 8.7 C 47 %
1172 11-04-2021 03:13:17 8.6 C 46 %
1173 11-04-2021 03:23:17 8.6 C 46 %
1174 11-04-2021 03:33:17 8.6 C 46 %
1175 11-04-2021 03:43:17 8.5 C 46 %
Sensor: Nr:Datum:Temp:Feuchte:
Aussen-T/F 1176 11-04-2021 03:53:17 8.5 C 46 %
1177 11-04-2021 04:03:17 8.5 C 46 %
1178 11-04-2021 04:13:17 8.3 C 46 %
1179 11-04-2021 04:23:17 8.5 C 46 %
1180 11-04-2021 04:33:18 8.4 C 46 %
1181 11-04-2021 04:43:18 8.4 C 46 %
1182 11-04-2021 04:53:17 8.3 C 46 %
1183 11-04-2021 05:03:17 8.3 C 46 %
1184 11-04-2021 05:13:17 8.2 C 46 %
1185 11-04-2021 05:23:17 8.4 C 46 %
1186 11-04-2021 05:33:17 8.6 C 46 %
1187 11-04-2021 05:43:17 8.5 C 46 %
1188 11-04-2021 05:53:18 8.5 C 46 %
1189 11-04-2021 06:03:17 8.6 C 46 %
1190 11-04-2021 06:13:17 8.6 C 46 %
1191 11-04-2021 06:23:17 8.6 C 46 %
1192 11-04-2021 06:33:17 8.7 C 46 %
1193 11-04-2021 06:43:17 8.6 C 46 %
1194 11-04-2021 06:53:17 8.7 C 46 %
1195 11-04-2021 07:03:17 8.7 C 46 %
1196 11-04-2021 07:13:17 8.8 C 46 %
1197 11-04-2021 07:23:18 8.8 C 46 %
1198 11-04-2021 07:33:17 8.9 C 46 %
1199 11-04-2021 07:43:17 8.9 C 46 %
1200 11-04-2021 07:53:17 9 C 45 %
Sensor: Nr:Datum:Temp:Feuchte:
Aussen-T/F 1201 11-04-2021 08:03:17 9.1 C 45 %
1202 11-04-2021 08:13:17 9.2 C 45 %
1203 11-04-2021 08:23:17 9.3 C 45 %
1204 11-04-2021 08:33:17 9.6 C 45 %
1205 11-04-2021 08:43:17 9.9 C 45 %
1206 11-04-2021 08:53:17 10.7 C 45 %
1207 11-04-2021 09:03:18 10.3 C 45 %
1208 11-04-2021 09:13:18 10.4 C 45 %
1209 11-04-2021 09:23:17 10.5 C 45 %
1210 11-04-2021 09:33:18 8.9 C 43 %
1211 11-04-2021 09:43:18 7.8 C 45 %
1212 11-04-2021 09:53:18 7.5 C 46 %
1213 11-04-2021 10:03:17 7 C 45 %
1214 11-04-2021 10:13:17 6.8 C 46 %
1215 11-04-2021 10:23:17 6.5 C 46 %
1216 11-04-2021 10:33:17 6.2 C 46 %
1217 11-04-2021 10:43:17 5.7 C 46 %
1218 11-04-2021 10:53:18 5.6 C 47 %
1219 11-04-2021 11:03:17 5.5 C 46 %
1220 11-04-2021 11:13:17 5.3 C 46 %
1221 11-04-2021 11:23:17 5.1 C 45 %
1222 11-04-2021 11:33:17 5.3 C 46 %
1223 11-04-2021 11:43:17 5 C 45 %
1224 11-04-2021 11:53:18 5.2 C 45 %
1225 11-04-2021 12:03:17 5 C 45 %
Sensor: Nr:Datum:Temp:Feuchte:
Aussen-T/F 1226 11-04-2021 12:13:17 4.8 C 45 %
1227 11-04-2021 12:23:17 4.8 C 45 %
1228 11-04-2021 12:33:17 5.1 C 45 %
1229 11-04-2021 12:43:17 5.1 C 45 %
1230 11-04-2021 12:53:18 4.8 C 45 %
1231 11-04-2021 13:03:18 4.7 C 45 %
1232 11-04-2021 13:13:18 4.7 C 45 %
1233 11-04-2021 13:23:18 4.7 C 46 %
1234 11-04-2021 13:33:18 4.6 C 46 %
1235 11-04-2021 13:43:18 4.5 C 45 %
1236 11-04-2021 13:53:17 4.4 C 45 %
1237 11-04-2021 14:03:17 4.3 C 44 %
1238 11-04-2021 14:13:17 4.3 C 45 %
1239 11-04-2021 14:23:17 4.2 C 45 %
1240 11-04-2021 14:33:18 4 C 45 %
1241 11-04-2021 14:43:18 4 C 44 %
1242 11-04-2021 14:53:17 4.1 C 44 %
1243 11-04-2021 15:03:17 3.9 C 44 %
1244 11-04-2021 15:13:17 4.2 C 44 %
1245 11-04-2021 15:23:17 4.2 C 44 %
1246 11-04-2021 15:33:18 4.5 C 45 %
1247 11-04-2021 15:43:18 4.1 C 44 %
1248 11-04-2021 15:53:17 4.1 C 45 %
1249 11-04-2021 16:03:17 3.8 C 45 %
1250 11-04-2021 16:13:17 4 C 45 %
Sensor: Nr:Datum:Temp:Feuchte:
Aussen-T/F 1251 11-04-2021 16:23:17 3.8 C 45 %
1252 11-04-2021 16:33:17 4 C 45 %
1253 11-04-2021 16:43:17 3.9 C 46 %
1254 11-04-2021 16:53:18 4 C 45 %
1255 11-04-2021 17:03:18 3.9 C 45 %
1256 11-04-2021 17:13:18 3.9 C 45 %
1257 11-04-2021 17:23:18 4.2 C 45 %
1258 11-04-2021 17:33:17 4.2 C 45 %
1259 11-04-2021 17:43:17 4.3 C 45 %
1260 11-04-2021 17:53:17 4.2 C 45 %
1261 11-04-2021 18:03:18 4.3 C 45 %
1262 11-04-2021 18:13:18 4.3 C 45 %
1263 11-04-2021 18:23:17 4.3 C 45 %
1264 11-04-2021 18:33:18 4.4 C 45 %
1265 11-04-2021 18:43:18 4.2 C 44 %
1266 11-04-2021 18:53:17 4.2 C 45 %
1267 11-04-2021 19:03:17 4.2 C 45 %
1268 11-04-2021 19:13:17 4.1 C 45 %
1269 11-04-2021 19:23:17 4.1 C 46 %
1270 11-04-2021 19:33:17 3.9 C 46 %
1271 11-04-2021 19:43:17 4 C 46 %
1272 11-04-2021 19:53:18 4 C 47 %
1273 11-04-2021 20:03:17 3.7 C 47 %
1274 11-04-2021 20:13:17 3.7 C 47 %
1275 11-04-2021 20:23:17 3.6 C 47 %
Sensor: Nr:Datum:Temp:Feuchte:
Aussen-T/F 1276 11-04-2021 20:33:17 3.4 C 47 %
1277 11-04-2021 20:43:17 3.4 C 47 %
1278 11-04-2021 20:53:18 3.3 C 47 %
1279 11-04-2021 21:03:18 3.3 C 47 %
1280 11-04-2021 21:13:18 3.3 C 47 %
1281 11-04-2021 21:23:17 3.3 C 48 %
1282 11-04-2021 21:33:17 3.1 C 46 %
1283 11-04-2021 21:43:17 3.1 C 48 %
1284 11-04-2021 21:53:17 3.1 C 48 %
1285 11-04-2021 22:03:18 3 C 49 %
1286 11-04-2021 22:13:18 2.9 C 50 %
1287 11-04-2021 22:23:18 2.9 C 51 %
1288 11-04-2021 22:33:18 2.9 C 51 %
1289 11-04-2021 22:43:18 2.9 C 51 %
1290 11-04-2021 22:53:17 3 C 50 %
1291 11-04-2021 23:03:17 3.2 C 50 %
1292 11-04-2021 23:13:17 3.2 C 50 %
1293 11-04-2021 23:23:17 3.4 C 50 %
1294 11-04-2021 23:33:18 3.4 C 50 %
1295 11-04-2021 23:43:18 3.3 C 50 %
1296 11-04-2021 23:53:18 3.3 C 50 %
1297 12-04-2021 00:03:17 3.4 C 50 %
1298 12-04-2021 00:13:17 3.4 C 50 %
1299 12-04-2021 00:23:17 3.4 C 50 %
1300 12-04-2021 00:33:17 3.4 C 50 %
Sensor: Nr:Datum:Temp:Feuchte:
Aussen-T/F 1301 12-04-2021 00:43:17 3.4 C 50 %
1302 12-04-2021 00:53:18 3.3 C 50 %
1303 12-04-2021 01:03:17 3.3 C 50 %
1304 12-04-2021 01:13:17 3.1 C 50 %
1305 12-04-2021 01:23:17 3.1 C 50 %
1306 12-04-2021 01:33:18 3 C 50 %
1307 12-04-2021 01:43:18 3.1 C 50 %
1308 12-04-2021 01:53:18 3 C 49 %
1309 12-04-2021 02:03:17 2.8 C 49 %
1310 12-04-2021 02:13:17 2.5 C 49 %
1311 12-04-2021 02:23:17 2.4 C 50 %
1312 12-04-2021 02:33:17 2.2 C 50 %
1313 12-04-2021 02:43:17 2.1 C 50 %
1314 12-04-2021 02:53:18 2.1 C 50 %
1315 12-04-2021 03:03:17 2.1 C 50 %
1316 12-04-2021 03:13:17 2 C 50 %
1317 12-04-2021 03:23:17 2.2 C 50 %
1318 12-04-2021 03:33:17 2.1 C 50 %
1319 12-04-2021 03:43:17 2 C 48 %
1320 12-04-2021 03:53:17 1.9 C 48 %
1321 12-04-2021 04:03:17 1.8 C 48 %
1322 12-04-2021 04:13:17 1.8 C 47 %
1323 12-04-2021 04:23:18 1.7 C 48 %
1324 12-04-2021 04:33:17 1.3 C 48 %
1325 12-04-2021 04:43:17 1.1 C 49 %
Sensor: Nr:Datum:Temp:Feuchte:
Aussen-T/F 1326 12-04-2021 04:53:17 1.3 C 50 %
1327 12-04-2021 05:03:17 1.2 C 49 %
1328 12-04-2021 05:13:17 1.1 C 49 %
1329 12-04-2021 05:23:18 1.1 C 49 %
1330 12-04-2021 05:33:17 1.2 C 49 %
1331 12-04-2021 05:43:17 1 C 49 %
1332 12-04-2021 05:53:17 1 C 50 %
1333 12-04-2021 06:03:17 1.1 C 50 %
1334 12-04-2021 06:13:17 1 C 50 %
1335 12-04-2021 06:23:18 1.1 C 50 %
1336 12-04-2021 06:33:17 1.3 C 50 %
1337 12-04-2021 06:43:17 1.3 C 49 %
1338 12-04-2021 06:53:18 1.3 C 49 %
1339 12-04-2021 07:03:17 1.4 C 49 %
1340 12-04-2021 07:13:17 1.4 C 49 %
1341 12-04-2021 07:23:17 1.6 C 50 %
1342 12-04-2021 07:33:17 1.7 C 49 %
1343 12-04-2021 07:43:17 1.8 C 49 %
1344 12-04-2021 07:53:18 1.8 C 49 %
1345 12-04-2021 08:03:17 1.7 C 49 %
1346 12-04-2021 08:13:17 1.5 C 50 %
1347 12-04-2021 08:23:17 1.2 C 50 %
1348 12-04-2021 08:33:17 1.5 C 50 %
1349 12-04-2021 08:43:17 1.8 C 50 %
1350 12-04-2021 08:53:17 2.5 C 47 %
Sensor: Nr:Datum:Temp:Feuchte:
Aussen-T/F 1351 12-04-2021 09:03:17 3 C 45 %
1352 12-04-2021 09:13:17 3.8 C 45 %
1353 12-04-2021 09:23:18 3.7 C 43 %
1354 12-04-2021 09:33:17 3.6 C 42 %
1355 12-04-2021 09:43:18 4.2 C 41 %
1356 12-04-2021 09:53:17 4.3 C 40 %
1357 12-04-2021 10:03:17 4.4 C 39 %
1358 12-04-2021 10:13:17 4.4 C 39 %
1359 12-04-2021 10:23:17 4.6 C 39 %
1360 12-04-2021 10:33:18 5.4 C 37 %
1361 12-04-2021 10:43:18 5.6 C 37 %
1362 12-04-2021 10:53:17 5.6 C 36 %
1363 12-04-2021 11:03:17 5.3 C 37 %
1364 12-04-2021 11:13:17 5.9 C 36 %
1365 12-04-2021 11:23:17 5.4 C 37 %
1366 12-04-2021 11:33:17 6.8 C 35 %
1367 12-04-2021 11:43:17 5.8 C 35 %
1368 12-04-2021 11:53:17 7.1 C 35 %
1369 12-04-2021 12:03:17 9.2 C 31 %
1370 12-04-2021 12:13:17 9.2 C 31 %
1371 12-04-2021 12:23:17 9.5 C 30 %
1372 12-04-2021 12:33:17 8.7 C 30 %
1373 12-04-2021 12:43:17 9 C 30 %
1374 12-04-2021 12:53:17 6.2 C 35 %
1375 12-04-2021 13:03:17 4.1 C 41 %
Sensor: Nr:Datum:Temp:Feuchte:
Aussen-T/F 1376 12-04-2021 13:13:17 4.6 C 41 %
1377 12-04-2021 13:23:17 6.4 C 39 %
1378 12-04-2021 13:33:18 5.8 C 40 %
1379 12-04-2021 13:43:18 4.8 C 40 %
1380 12-04-2021 13:53:17 3.9 C 41 %
1381 12-04-2021 14:03:17 4.6 C 40 %
1382 12-04-2021 14:13:17 5.4 C 39 %
1383 12-04-2021 14:23:17 7.2 C 34 %
1384 12-04-2021 14:33:18 11.3 C 29 %
1385 12-04-2021 14:43:18 13.1 C 27 %
1386 12-04-2021 14:53:18 13.7 C 27 %
1387 12-04-2021 15:03:17 14.1 C 25 %
1388 12-04-2021 15:13:17 8.7 C 31 %
1389 12-04-2021 15:23:17 7.5 C 32 %
1390 12-04-2021 15:33:17 5.8 C 38 %
1391 12-04-2021 15:43:17 7.2 C 36 %
1392 12-04-2021 15:53:18 5.2 C 37 %
1393 12-04-2021 16:03:17 3.2 C 40 %
1394 12-04-2021 16:13:17 4.1 C 41 %
1395 12-04-2021 16:23:17 5.1 C 39 %
1396 12-04-2021 16:33:17 9.1 C 31 %
1397 12-04-2021 16:43:17 7.7 C 35 %
1398 12-04-2021 16:53:17 6.8 C 35 %
1399 12-04-2021 17:03:17 6.2 C 35 %
1400 12-04-2021 17:13:17 5.8 C 35 %
Sensor: Nr:Datum:Temp:Feuchte:
Aussen-T/F 1401 12-04-2021 17:23:17 5.6 C 35 %
1402 12-04-2021 17:33:18 6.1 C 35 %
1403 12-04-2021 17:43:18 6.2 C 35 %
1404 12-04-2021 17:53:17 6.5 C 35 %
1405 12-04-2021 18:03:17 6.2 C 34 %
1406 12-04-2021 18:13:17 6.6 C 33 %
1407 12-04-2021 18:23:18 7 C 32 %
1408 12-04-2021 18:33:18 7 C 32 %
1409 12-04-2021 18:43:18 6.7 C 33 %
1410 12-04-2021 18:53:17 6.7 C 33 %
1411 12-04-2021 19:03:17 6.8 C 33 %
1412 12-04-2021 19:13:17 6.1 C 34 %
1413 12-04-2021 19:23:17 6 C 33 %
1414 12-04-2021 19:33:17 5.7 C 35 %
1415 12-04-2021 19:43:17 5.4 C 35 %
1416 12-04-2021 19:53:18 5.1 C 35 %
1417 12-04-2021 20:03:17 4.5 C 37 %
1418 12-04-2021 20:13:17 3.5 C 40 %
1419 12-04-2021 20:23:17 3.6 C 41 %
1420 12-04-2021 20:33:17 3.2 C 41 %
1421 12-04-2021 20:43:17 3.2 C 42 %
1422 12-04-2021 20:53:17 2.7 C 43 %
1423 12-04-2021 21:03:17 2.5 C 43 %
1424 12-04-2021 21:13:17 2.2 C 43 %
1425 12-04-2021 21:23:17 2.4 C 43 %
Sensor: Nr:Datum:Temp:Feuchte:
Aussen-T/F 1426 12-04-2021 21:33:17 2.4 C 43 %
1427 12-04-2021 21:43:17 2.2 C 43 %
1428 12-04-2021 21:53:18 2.1 C 43 %
1429 12-04-2021 22:03:17 2 C 43 %
1430 12-04-2021 22:13:17 1.4 C 46 %
1431 12-04-2021 22:23:17 0.9 C 47 %
1432 12-04-2021 22:33:17 0.9 C 50 %
1433 12-04-2021 22:43:17 1.5 C 46 %
1434 12-04-2021 22:53:17 1.3 C 46 %
1435 12-04-2021 23:03:17 1.1 C 47 %
1436 12-04-2021 23:13:17 0.8 C 48 %
1437 12-04-2021 23:23:17 0.2 C 50 %
1438 12-04-2021 23:33:18 0.1 C 50 %
1439 12-04-2021 23:43:18 -0.1 C 50 %
1440 12-04-2021 23:53:17 -0.5 C 50 %
1441 13-04-2021 00:03:18 -0.4 C 51 %
1442 13-04-2021 00:13:18 -0.7 C 51 %
1443 13-04-2021 00:23:18 -0.9 C 51 %
1444 13-04-2021 00:33:17 -0.7 C 51 %
1445 13-04-2021 00:43:17 -0.8 C 51 %
1446 13-04-2021 00:53:18 -0.9 C 51 %
1447 13-04-2021 01:03:17 -0.9 C 51 %
1448 13-04-2021 01:13:17 -1.2 C 51 %
1449 13-04-2021 01:23:17 -1.2 C 51 %
1450 13-04-2021 01:33:17 -1.1 C 51 %
Sensor: Nr:Datum:Temp:Feuchte:
Aussen-T/F 1451 13-04-2021 01:43:17 -1.4 C 51 %
1452 13-04-2021 01:53:17 -1.4 C 51 %
1453 13-04-2021 02:03:17 -1.3 C 51 %
1454 13-04-2021 02:13:18 -1.5 C 51 %
1455 13-04-2021 02:23:17 -1.6 C 51 %
1456 13-04-2021 02:33:17 -1.7 C 51 %
1457 13-04-2021 02:43:17 -1.7 C 51 %
1458 13-04-2021 02:53:17 -1.8 C 51 %
1459 13-04-2021 03:03:18 -1.8 C 51 %
1460 13-04-2021 03:13:18 -1.8 C 51 %
1461 13-04-2021 03:23:18 -2 C 51 %
1462 13-04-2021 03:33:17 -2.1 C 51 %
1463 13-04-2021 03:43:17 -2.2 C 50 %
1464 13-04-2021 03:53:17 -2.3 C 50 %
1465 13-04-2021 04:03:17 -2.3 C 50 %
1466 13-04-2021 04:13:17 -2.4 C 50 %
1467 13-04-2021 04:23:18 -2.5 C 50 %
1468 13-04-2021 04:33:17 -2.4 C 50 %
1469 13-04-2021 04:43:17 -2.3 C 50 %
1470 13-04-2021 04:53:18 -2.4 C 50 %
1471 13-04-2021 05:03:17 -2.3 C 50 %
1472 13-04-2021 05:13:17 -2.2 C 50 %
1473 13-04-2021 05:23:17 -2.4 C 50 %
1474 13-04-2021 05:33:17 -2.4 C 50 %
1475 13-04-2021 05:43:17 -2.1 C 50 %
Sensor: Nr:Datum:Temp:Feuchte:
Aussen-T/F 1476 13-04-2021 05:53:18 -2.3 C 50 %
1477 13-04-2021 06:03:17 -2.5 C 50 %
1478 13-04-2021 06:13:17 -2.2 C 50 %
1479 13-04-2021 06:23:17 -2 C 50 %
1480 13-04-2021 06:33:18 -2.4 C 50 %
1481 13-04-2021 06:43:18 -2.2 C 50 %
1482 13-04-2021 06:53:17 -2.6 C 50 %
1483 13-04-2021 07:03:17 -2.4 C 50 %
1484 13-04-2021 07:13:17 -2.2 C 50 %
1485 13-04-2021 07:23:17 -2.1 C 50 %
1486 13-04-2021 07:33:18 -1.9 C 50 %
1487 13-04-2021 07:43:18 -1.8 C 50 %
1488 13-04-2021 07:53:17 -1.5 C 50 %
1489 13-04-2021 08:03:17 -1.3 C 50 %
1490 13-04-2021 08:13:17 -0.9 C 50 %
1491 13-04-2021 08:23:17 -0.4 C 50 %
1492 13-04-2021 08:33:18 -0.3 C 50 %
1493 13-04-2021 08:43:18 0.1 C 50 %
1494 13-04-2021 08:53:18 0.1 C 50 %
1495 13-04-2021 09:03:17 0.3 C 50 %
1496 13-04-2021 09:13:17 0.7 C 51 %
1497 13-04-2021 09:23:18 0.7 C 50 %
1498 13-04-2021 09:33:17 1.2 C 48 %
1499 13-04-2021 09:43:17 1.9 C 47 %
1500 13-04-2021 09:53:17 2.4 C 47 %
Sensor: Nr:Datum:Temp:Feuchte:
Aussen-T/F 1501 13-04-2021 10:03:17 2.3 C 43 %
1502 13-04-2021 10:13:17 2.3 C 44 %
Sensor: Nr:Datum:Temp:Feuchte:
G-T/H 1 03-04-2021 00:02:17 11.4 C 59 %
2 03-04-2021 00:12:17 11.4 C 60 %
3 03-04-2021 00:22:17 11.4 C 60 %
4 03-04-2021 00:32:17 11.4 C 60 %
5 03-04-2021 00:42:17 11.4 C 60 %
6 03-04-2021 00:52:17 11.4 C 60 %
7 03-04-2021 01:02:17 11.3 C 61 %
8 03-04-2021 01:12:17 11.3 C 61 %
9 03-04-2021 01:22:17 11.3 C 61 %
10 03-04-2021 01:32:17 11.3 C 61 %
11 03-04-2021 01:42:17 11.3 C 61 %
12 03-04-2021 01:52:17 11.3 C 61 %
13 03-04-2021 02:02:18 11.3 C 61 %
14 03-04-2021 02:12:18 11.3 C 61 %
15 03-04-2021 02:22:18 11.2 C 62 %
16 03-04-2021 02:32:17 11.3 C 62 %
17 03-04-2021 02:42:17 11.2 C 62 %
18 03-04-2021 02:52:17 11.2 C 62 %
19 03-04-2021 03:02:17 11.2 C 62 %
20 03-04-2021 03:12:17 11.2 C 62 %
21 03-04-2021 03:22:17 11.2 C 62 %
22 03-04-2021 03:32:17 11.2 C 62 %
23 03-04-2021 03:42:17 11.2 C 62 %
24 03-04-2021 03:52:17 11.2 C 62 %
25 03-04-2021 04:02:17 11.2 C 62 %
Sensor: Nr:Datum:Temp:Feuchte:
G-T/H 26 03-04-2021 04:12:17 11.2 C 62 %
27 03-04-2021 04:22:17 11.1 C 62 %
28 03-04-2021 04:32:17 11.1 C 63 %
29 03-04-2021 04:42:18 11.1 C 63 %
30 03-04-2021 04:52:17 11.1 C 63 %
31 03-04-2021 05:02:17 11.1 C 63 %
32 03-04-2021 05:12:18 11.1 C 63 %
33 03-04-2021 05:22:17 11.1 C 63 %
34 03-04-2021 05:32:17 11.1 C 63 %
35 03-04-2021 05:42:17 11.1 C 63 %
36 03-04-2021 05:52:17 11 C 62 %
37 03-04-2021 06:02:17 11 C 62 %
38 03-04-2021 06:12:17 11 C 61 %
39 03-04-2021 06:22:17 11 C 61 %
40 03-04-2021 06:32:17 11 C 61 %
41 03-04-2021 06:42:17 10.9 C 61 %
42 03-04-2021 06:52:18 10.9 C 61 %
43 03-04-2021 07:02:17 10.9 C 61 %
44 03-04-2021 07:12:18 10.9 C 61 %
45 03-04-2021 07:22:18 10.9 C 61 %
46 03-04-2021 07:32:18 10.9 C 61 %
47 03-04-2021 07:42:18 10.8 C 61 %
48 03-04-2021 07:52:18 10.8 C 61 %
49 03-04-2021 08:02:18 10.8 C 62 %
50 03-04-2021 08:12:18 10.9 C 62 %
Sensor: Nr:Datum:Temp:Feuchte:
G-T/H 51 03-04-2021 08:22:18 10.8 C 62 %
52 03-04-2021 08:32:18 10.8 C 62 %
53 03-04-2021 08:42:18 10.8 C 62 %
54 03-04-2021 08:52:17 10.8 C 62 %
55 03-04-2021 09:02:17 10.8 C 62 %
56 03-04-2021 09:12:18 10.8 C 62 %
57 03-04-2021 09:22:17 10.8 C 63 %
58 03-04-2021 09:32:17 10.8 C 63 %
59 03-04-2021 09:42:17 10.7 C 62 %
60 03-04-2021 09:52:17 10.7 C 62 %
61 03-04-2021 10:02:17 10.7 C 62 %
62 03-04-2021 10:12:17 10.7 C 61 %
63 03-04-2021 10:22:17 10.6 C 61 %
64 03-04-2021 10:32:17 10.6 C 61 %
65 03-04-2021 10:42:17 10.6 C 60 %
66 03-04-2021 10:52:18 10.5 C 60 %
67 03-04-2021 11:02:17 10.5 C 60 %
68 03-04-2021 11:12:17 10.5 C 60 %
69 03-04-2021 11:22:18 10.5 C 59 %
70 03-04-2021 11:32:18 10.5 C 59 %
71 03-04-2021 11:42:18 10.5 C 59 %
72 03-04-2021 11:52:18 10.5 C 59 %
73 03-04-2021 12:02:17 10.6 C 59 %
74 03-04-2021 12:12:18 10.6 C 60 %
75 03-04-2021 12:22:18 10.6 C 60 %
Sensor: Nr:Datum:Temp:Feuchte:
G-T/H 76 03-04-2021 12:32:18 10.6 C 60 %
77 03-04-2021 12:42:18 10.7 C 60 %
78 03-04-2021 12:52:18 10.6 C 60 %
79 03-04-2021 13:02:18 10.7 C 60 %
80 03-04-2021 13:12:18 10.7 C 61 %
81 03-04-2021 13:22:17 10.7 C 61 %
82 03-04-2021 13:32:18 10.7 C 61 %
83 03-04-2021 13:42:18 10.7 C 61 %
84 03-04-2021 13:52:17 10.7 C 61 %
85 03-04-2021 14:02:17 10.7 C 61 %
86 03-04-2021 14:12:18 10.7 C 61 %
87 03-04-2021 14:22:17 10.8 C 61 %
88 03-04-2021 14:32:17 10.8 C 60 %
89 03-04-2021 14:42:18 10.8 C 60 %
90 03-04-2021 14:52:17 10.8 C 60 %
91 03-04-2021 15:02:17 10.8 C 59 %
92 03-04-2021 15:12:17 10.8 C 58 %
93 03-04-2021 15:22:18 10.8 C 58 %
94 03-04-2021 15:32:18 10.8 C 58 %
95 03-04-2021 15:42:18 10.9 C 58 %
96 03-04-2021 15:52:18 10.9 C 59 %
97 03-04-2021 16:02:18 10.9 C 59 %
98 03-04-2021 16:12:18 10.9 C 59 %
99 03-04-2021 16:22:17 10.9 C 59 %
100 03-04-2021 16:32:17 11 C 58 %
Sensor: Nr:Datum:Temp:Feuchte:
G-T/H 101 03-04-2021 16:42:18 11 C 58 %
102 03-04-2021 16:52:17 11 C 58 %
103 03-04-2021 17:02:18 11 C 58 %
104 03-04-2021 17:12:18 11 C 58 %
105 03-04-2021 17:22:18 11 C 59 %
106 03-04-2021 17:32:17 11 C 59 %
107 03-04-2021 17:42:18 11 C 59 %
108 03-04-2021 17:52:18 11 C 58 %
109 03-04-2021 18:02:17 11 C 59 %
110 03-04-2021 18:12:17 11.1 C 59 %
111 03-04-2021 18:22:17 11.1 C 59 %
112 03-04-2021 18:32:17 11.1 C 59 %
113 03-04-2021 18:42:17 11.1 C 59 %
114 03-04-2021 18:52:18 11.1 C 59 %
115 03-04-2021 19:02:17 11.2 C 59 %
116 03-04-2021 19:12:17 11.2 C 59 %
117 03-04-2021 19:22:17 11.1 C 59 %
118 03-04-2021 19:32:17 11.1 C 59 %
119 03-04-2021 19:42:17 11.2 C 59 %
120 03-04-2021 19:52:18 11.2 C 59 %
121 03-04-2021 20:02:17 11.1 C 59 %
122 03-04-2021 20:12:17 11.2 C 60 %
123 03-04-2021 20:22:17 11.2 C 60 %
124 03-04-2021 20:32:17 11.1 C 60 %
125 03-04-2021 20:42:17 11.1 C 60 %
Sensor: Nr:Datum:Temp:Feuchte:
G-T/H 126 03-04-2021 20:52:18 11.1 C 60 %
127 03-04-2021 21:02:17 11.1 C 60 %
128 03-04-2021 21:12:17 11.1 C 61 %
129 03-04-2021 21:22:17 11.1 C 61 %
130 03-04-2021 21:32:18 11.1 C 61 %
131 03-04-2021 21:42:18 11.1 C 60 %
132 03-04-2021 21:52:17 11.1 C 60 %
133 03-04-2021 22:02:17 11.1 C 60 %
134 03-04-2021 22:12:17 11 C 60 %
135 03-04-2021 22:22:17 11 C 59 %
136 03-04-2021 22:32:17 11 C 59 %
137 03-04-2021 22:42:17 11 C 59 %
138 03-04-2021 22:52:18 11 C 59 %
139 03-04-2021 23:02:17 11 C 60 %
140 03-04-2021 23:12:17 11 C 60 %
141 03-04-2021 23:22:17 11 C 60 %
142 03-04-2021 23:32:17 11 C 60 %
143 03-04-2021 23:42:17 11 C 60 %
144 03-04-2021 23:52:17 11 C 60 %
145 04-04-2021 00:02:17 11 C 60 %
146 04-04-2021 00:12:17 11 C 60 %
147 04-04-2021 00:22:17 11 C 60 %
148 04-04-2021 00:32:17 11 C 61 %
149 04-04-2021 00:42:17 11 C 61 %
150 04-04-2021 00:52:18 10.9 C 61 %
Sensor: Nr:Datum:Temp:Feuchte:
G-T/H 151 04-04-2021 01:02:17 10.9 C 62 %
152 04-04-2021 01:12:17 10.9 C 62 %
153 04-04-2021 01:22:17 10.9 C 62 %
154 04-04-2021 01:32:17 10.9 C 62 %
155 04-04-2021 01:42:17 10.9 C 62 %
156 04-04-2021 01:52:18 10.8 C 62 %
157 04-04-2021 02:02:17 10.8 C 62 %
158 04-04-2021 02:12:17 10.8 C 62 %
159 04-04-2021 02:22:17 10.8 C 62 %
160 04-04-2021 02:32:17 10.8 C 62 %
161 04-04-2021 02:42:17 10.8 C 62 %
162 04-04-2021 02:52:17 10.8 C 62 %
163 04-04-2021 03:02:17 10.8 C 62 %
164 04-04-2021 03:12:17 10.7 C 62 %
165 04-04-2021 03:22:17 10.7 C 62 %
166 04-04-2021 03:32:17 10.7 C 62 %
167 04-04-2021 03:42:17 10.7 C 62 %
168 04-04-2021 03:52:17 10.6 C 62 %
169 04-04-2021 04:02:18 10.7 C 62 %
170 04-04-2021 04:12:18 10.6 C 62 %
171 04-04-2021 04:22:17 10.6 C 62 %
172 04-04-2021 04:32:17 10.5 C 62 %
173 04-04-2021 04:42:17 10.5 C 62 %
174 04-04-2021 04:52:17 10.5 C 62 %
175 04-04-2021 05:02:17 10.4 C 61 %
Sensor: Nr:Datum:Temp:Feuchte:
G-T/H 176 04-04-2021 05:12:17 10.5 C 61 %
177 04-04-2021 05:22:17 10.4 C 61 %
178 04-04-2021 05:32:17 10.4 C 61 %
179 04-04-2021 05:42:17 10.4 C 61 %
180 04-04-2021 05:52:17 10.4 C 61 %
181 04-04-2021 06:02:18 10.3 C 61 %
182 04-04-2021 06:12:18 10.3 C 61 %
183 04-04-2021 06:22:17 10.2 C 61 %
184 04-04-2021 06:32:18 10.2 C 61 %
185 04-04-2021 06:42:18 10.2 C 60 %
186 04-04-2021 06:52:17 10.2 C 60 %
187 04-04-2021 07:02:17 10.2 C 60 %
188 04-04-2021 07:12:17 10.1 C 60 %
189 04-04-2021 07:22:17 10.1 C 60 %
190 04-04-2021 07:32:17 10.1 C 60 %
191 04-04-2021 07:42:17 10.1 C 60 %
192 04-04-2021 07:52:18 10.1 C 60 %
193 04-04-2021 08:02:17 10.1 C 60 %
194 04-04-2021 08:12:17 10 C 60 %
195 04-04-2021 08:22:17 10 C 61 %
196 04-04-2021 08:32:17 10 C 61 %
197 04-04-2021 08:42:17 10 C 61 %
198 04-04-2021 08:52:17 10 C 61 %
199 04-04-2021 09:02:17 10 C 61 %
200 04-04-2021 09:12:17 10 C 61 %
Sensor: Nr:Datum:Temp:Feuchte:
G-T/H 201 04-04-2021 09:22:17 10 C 61 %
202 04-04-2021 09:32:17 10 C 61 %
203 04-04-2021 09:42:17 10 C 61 %
204 04-04-2021 09:52:17 10 C 62 %
205 04-04-2021 10:02:17 10 C 62 %
206 04-04-2021 10:12:18 10 C 62 %
207 04-04-2021 10:22:17 10 C 62 %
208 04-04-2021 10:32:17 10 C 62 %
209 04-04-2021 10:42:17 10 C 62 %
210 04-04-2021 10:52:18 10 C 62 %
211 04-04-2021 11:02:17 10 C 62 %
212 04-04-2021 11:12:17 10 C 62 %
213 04-04-2021 11:22:17 10 C 62 %
214 04-04-2021 11:32:17 10 C 62 %
215 04-04-2021 11:42:17 10 C 62 %
216 04-04-2021 11:52:17 9.9 C 63 %
217 04-04-2021 12:02:17 9.9 C 63 %
218 04-04-2021 12:12:17 10 C 62 %
219 04-04-2021 12:22:17 10 C 62 %
220 04-04-2021 12:32:18 10 C 62 %
221 04-04-2021 12:42:18 10 C 62 %
222 04-04-2021 12:52:17 10 C 62 %
223 04-04-2021 13:02:17 10 C 62 %
224 04-04-2021 13:12:17 10 C 62 %
225 04-04-2021 13:22:17 10 C 62 %
Sensor: Nr:Datum:Temp:Feuchte:
G-T/H 226 04-04-2021 13:32:17 10 C 62 %
227 04-04-2021 13:42:17 10 C 62 %
228 04-04-2021 13:52:17 10 C 62 %
229 04-04-2021 14:02:18 10 C 62 %
230 04-04-2021 14:12:18 10 C 62 %
231 04-04-2021 14:22:17 10 C 63 %
232 04-04-2021 14:32:17 10 C 63 %
233 04-04-2021 14:42:17 10 C 63 %
234 04-04-2021 14:52:17 10 C 63 %
235 04-04-2021 15:02:17 10 C 63 %
236 04-04-2021 15:12:17 10 C 63 %
237 04-04-2021 15:22:17 10 C 63 %
238 04-04-2021 15:32:17 10 C 63 %
239 04-04-2021 15:42:17 10 C 63 %
240 04-04-2021 15:52:17 10 C 63 %
241 04-04-2021 16:02:17 10.1 C 63 %
242 04-04-2021 16:12:17 10.1 C 63 %
243 04-04-2021 16:22:17 10.1 C 63 %
244 04-04-2021 16:32:17 10.1 C 63 %
245 04-04-2021 16:42:17 10.1 C 63 %
246 04-04-2021 16:52:17 10.1 C 63 %
247 04-04-2021 17:02:17 10.1 C 63 %
248 04-04-2021 17:12:17 10.1 C 63 %
249 04-04-2021 17:22:17 10.1 C 63 %
250 04-04-2021 17:32:17 10.1 C 63 %
Sensor: Nr:Datum:Temp:Feuchte:
G-T/H 251 04-04-2021 17:42:18 10.1 C 63 %
252 04-04-2021 17:52:17 10.2 C 63 %
253 04-04-2021 18:02:17 10.2 C 63 %
254 04-04-2021 18:12:17 10.2 C 63 %
255 04-04-2021 18:22:17 10.2 C 63 %
256 04-04-2021 18:32:17 10.2 C 63 %
257 04-04-2021 18:42:17 10.2 C 63 %
258 04-04-2021 18:52:18 10.2 C 63 %
259 04-04-2021 19:02:17 10.2 C 63 %
260 04-04-2021 19:12:18 10.2 C 64 %
261 04-04-2021 19:22:17 10.2 C 64 %
262 04-04-2021 19:32:17 10.2 C 64 %
263 04-04-2021 19:42:17 10.2 C 64 %
264 04-04-2021 19:52:17 10.2 C 64 %
265 04-04-2021 20:02:17 10.2 C 64 %
266 04-04-2021 20:12:17 10.2 C 64 %
267 04-04-2021 20:22:17 10.2 C 64 %
268 04-04-2021 20:32:17 10.2 C 64 %
269 04-04-2021 20:42:17 10.2 C 64 %
270 04-04-2021 20:52:17 10.2 C 64 %
271 04-04-2021 21:02:17 10.1 C 64 %
272 04-04-2021 21:12:17 10.1 C 64 %
273 04-04-2021 21:22:17 10.1 C 63 %
274 04-04-2021 21:32:18 10.1 C 63 %
275 04-04-2021 21:42:18 10.1 C 63 %
Sensor: Nr:Datum:Temp:Feuchte:
G-T/H 276 04-04-2021 21:52:17 10.1 C 63 %
277 04-04-2021 22:02:17 10.1 C 63 %
278 04-04-2021 22:12:17 10 C 62 %
279 04-04-2021 22:22:17 10 C 62 %
280 04-04-2021 22:32:17 10 C 62 %
281 04-04-2021 22:42:17 10 C 62 %
282 04-04-2021 22:52:17 10 C 62 %
283 04-04-2021 23:02:18 10 C 62 %
284 04-04-2021 23:12:18 10 C 62 %
285 04-04-2021 23:22:18 10 C 62 %
286 04-04-2021 23:32:17 10 C 62 %
287 04-04-2021 23:42:17 10 C 62 %
288 04-04-2021 23:52:17 10 C 62 %
289 05-04-2021 00:02:17 10 C 62 %
290 05-04-2021 00:12:17 10 C 62 %
291 05-04-2021 00:22:17 10 C 63 %
292 05-04-2021 00:32:17 10 C 63 %
293 05-04-2021 00:42:17 9.9 C 63 %
294 05-04-2021 00:52:17 9.9 C 64 %
295 05-04-2021 01:02:17 9.9 C 64 %
296 05-04-2021 01:12:17 9.9 C 64 %
297 05-04-2021 01:22:17 9.9 C 64 %
298 05-04-2021 01:32:17 9.8 C 64 %
299 05-04-2021 01:42:17 9.8 C 64 %
300 05-04-2021 01:52:17 9.8 C 64 %
Sensor: Nr:Datum:Temp:Feuchte:
G-T/H 301 05-04-2021 02:02:17 9.8 C 64 %
302 05-04-2021 02:12:17 9.8 C 64 %
303 05-04-2021 02:22:17 9.8 C 64 %
304 05-04-2021 02:32:17 9.8 C 64 %
305 05-04-2021 02:42:17 9.7 C 64 %
306 05-04-2021 02:52:18 9.7 C 64 %
307 05-04-2021 03:02:17 9.7 C 64 %
308 05-04-2021 03:12:17 9.7 C 64 %
309 05-04-2021 03:22:17 9.6 C 64 %
310 05-04-2021 03:32:17 9.7 C 64 %
311 05-04-2021 03:42:17 9.6 C 64 %
312 05-04-2021 03:52:17 9.6 C 64 %
313 05-04-2021 04:02:17 9.6 C 64 %
314 05-04-2021 04:12:17 9.6 C 64 %
315 05-04-2021 04:22:17 9.6 C 64 %
316 05-04-2021 04:32:18 9.6 C 64 %
317 05-04-2021 04:42:18 9.5 C 64 %
318 05-04-2021 04:52:17 9.5 C 64 %
319 05-04-2021 05:02:17 9.5 C 64 %
320 05-04-2021 05:12:17 9.5 C 64 %
321 05-04-2021 05:22:17 9.5 C 64 %
322 05-04-2021 05:32:17 9.5 C 64 %
323 05-04-2021 05:42:17 9.5 C 64 %
324 05-04-2021 05:52:18 9.5 C 64 %
325 05-04-2021 06:02:17 9.5 C 64 %
Sensor: Nr:Datum:Temp:Feuchte:
G-T/H 326 05-04-2021 06:12:17 9.5 C 64 %
327 05-04-2021 06:22:17 9.4 C 65 %
328 05-04-2021 06:32:17 9.4 C 65 %
329 05-04-2021 06:42:17 9.4 C 65 %
330 05-04-2021 06:52:18 9.4 C 65 %
331 05-04-2021 07:02:17 9.3 C 65 %
332 05-04-2021 07:12:17 9.3 C 65 %
333 05-04-2021 07:22:17 9.4 C 65 %
334 05-04-2021 07:32:18 9.3 C 65 %
335 05-04-2021 07:42:18 9.3 C 65 %
336 05-04-2021 07:52:17 9.3 C 65 %
337 05-04-2021 08:02:17 9.3 C 65 %
338 05-04-2021 08:12:17 9.3 C 65 %
339 05-04-2021 08:22:17 9.3 C 65 %
340 05-04-2021 08:32:17 9.3 C 65 %
341 05-04-2021 08:42:18 9.3 C 65 %
342 05-04-2021 08:52:17 9.3 C 65 %
343 05-04-2021 09:02:17 9.3 C 65 %
344 05-04-2021 09:12:17 9.3 C 65 %
345 05-04-2021 09:22:17 9.3 C 65 %
346 05-04-2021 09:32:17 9.3 C 66 %
347 05-04-2021 09:42:17 9.2 C 66 %
348 05-04-2021 09:52:18 9.3 C 66 %
349 05-04-2021 10:02:17 9.3 C 66 %
350 05-04-2021 10:12:17 9.3 C 66 %
Sensor: Nr:Datum:Temp:Feuchte:
G-T/H 351 05-04-2021 10:22:17 9.3 C 66 %
352 05-04-2021 10:32:17 9.3 C 66 %
353 05-04-2021 10:42:17 9.3 C 66 %
354 05-04-2021 10:52:18 9.2 C 66 %
355 05-04-2021 11:02:17 9.2 C 66 %
356 05-04-2021 11:12:17 9.2 C 66 %
357 05-04-2021 11:22:17 9.3 C 66 %
358 05-04-2021 11:32:17 9.3 C 66 %
359 05-04-2021 11:42:17 9.3 C 66 %
360 05-04-2021 11:52:17 9.2 C 66 %
361 05-04-2021 12:02:17 9.3 C 66 %
362 05-04-2021 12:12:17 9.3 C 66 %
363 05-04-2021 12:22:17 9.2 C 66 %
364 05-04-2021 12:32:17 9.3 C 66 %
365 05-04-2021 12:42:17 9.3 C 66 %
366 05-04-2021 12:52:17 9.3 C 66 %
367 05-04-2021 13:02:17 9.2 C 66 %
368 05-04-2021 13:12:17 9.2 C 66 %
369 05-04-2021 13:22:17 9.3 C 67 %
370 05-04-2021 13:32:17 9.2 C 67 %
371 05-04-2021 13:42:17 9.2 C 66 %
372 05-04-2021 13:52:17 9.2 C 66 %
373 05-04-2021 14:02:17 9.2 C 66 %
374 05-04-2021 14:12:17 9.2 C 66 %
375 05-04-2021 14:22:17 9.2 C 66 %
Sensor: Nr:Datum:Temp:Feuchte:
G-T/H 376 05-04-2021 14:32:17 9.2 C 66 %
377 05-04-2021 14:42:18 9.2 C 66 %
378 05-04-2021 14:52:17 9.2 C 66 %
379 05-04-2021 15:02:17 9.2 C 66 %
380 05-04-2021 15:12:17 9.2 C 66 %
381 05-04-2021 15:22:17 9.2 C 66 %
382 05-04-2021 15:32:17 9.2 C 66 %
383 05-04-2021 15:42:17 9.2 C 66 %
384 05-04-2021 15:52:18 9.2 C 66 %
385 05-04-2021 16:02:17 9.2 C 66 %
386 05-04-2021 16:12:17 9.2 C 66 %
387 05-04-2021 16:22:17 9.2 C 66 %
388 05-04-2021 16:32:17 9.2 C 66 %
389 05-04-2021 16:42:17 9.2 C 66 %
390 05-04-2021 16:52:17 9.2 C 66 %
391 05-04-2021 17:02:17 9.2 C 66 %
392 05-04-2021 17:12:17 9.2 C 66 %
393 05-04-2021 17:22:17 9.2 C 66 %
394 05-04-2021 17:32:17 9.2 C 65 %
395 05-04-2021 17:42:17 9.2 C 65 %
396 05-04-2021 17:52:17 9.2 C 65 %
397 05-04-2021 18:02:17 9.1 C 65 %
398 05-04-2021 18:12:17 9.1 C 64 %
399 05-04-2021 18:22:17 9.1 C 64 %
400 05-04-2021 18:32:17 9.1 C 64 %
Sensor: Nr:Datum:Temp:Feuchte:
G-T/H 401 05-04-2021 18:42:17 9.1 C 64 %
402 05-04-2021 18:52:17 9.2 C 64 %
403 05-04-2021 19:02:17 9.1 C 64 %
404 05-04-2021 19:12:17 9.1 C 64 %
405 05-04-2021 19:22:17 9.1 C 64 %
406 05-04-2021 19:32:17 9.1 C 64 %
407 05-04-2021 19:42:17 9.1 C 64 %
408 05-04-2021 19:52:18 9.1 C 64 %
409 05-04-2021 20:02:17 9.1 C 64 %
410 05-04-2021 20:12:17 9.1 C 64 %
411 05-04-2021 20:22:17 9 C 64 %
412 05-04-2021 20:32:17 9 C 64 %
413 05-04-2021 20:42:17 9 C 64 %
414 05-04-2021 20:52:17 9 C 64 %
415 05-04-2021 21:02:17 9 C 64 %
416 05-04-2021 21:12:17 9 C 64 %
417 05-04-2021 21:22:17 9 C 64 %
418 05-04-2021 21:32:17 9 C 64 %
419 05-04-2021 21:42:17 9 C 64 %
420 05-04-2021 21:52:17 9 C 64 %
421 05-04-2021 22:02:18 8.9 C 65 %
422 05-04-2021 22:12:18 8.9 C 65 %
423 05-04-2021 22:22:17 8.9 C 65 %
424 05-04-2021 22:32:17 8.9 C 65 %
425 05-04-2021 22:42:17 8.9 C 65 %
Sensor: Nr:Datum:Temp:Feuchte:
G-T/H 426 05-04-2021 22:52:17 8.9 C 65 %
427 05-04-2021 23:02:17 8.9 C 65 %
428 05-04-2021 23:12:17 8.9 C 65 %
429 05-04-2021 23:22:17 8.9 C 65 %
430 05-04-2021 23:32:17 8.8 C 65 %
431 05-04-2021 23:42:17 8.9 C 65 %
432 05-04-2021 23:52:18 8.8 C 65 %
433 06-04-2021 00:02:17 8.8 C 65 %
434 06-04-2021 00:12:17 8.7 C 65 %
435 06-04-2021 00:22:17 8.8 C 65 %
436 06-04-2021 00:32:17 8.7 C 65 %
437 06-04-2021 00:42:17 8.7 C 65 %
438 06-04-2021 00:52:17 8.7 C 65 %
439 06-04-2021 01:02:18 8.7 C 65 %
440 06-04-2021 01:12:18 8.7 C 65 %
441 06-04-2021 01:22:17 8.7 C 65 %
442 06-04-2021 01:32:18 8.7 C 65 %
443 06-04-2021 01:42:18 8.6 C 65 %
444 06-04-2021 01:52:17 8.6 C 65 %
445 06-04-2021 02:02:17 8.6 C 65 %
446 06-04-2021 02:12:17 8.6 C 65 %
447 06-04-2021 02:22:17 8.6 C 65 %
448 06-04-2021 02:32:17 8.6 C 65 %
449 06-04-2021 02:42:17 8.6 C 65 %
450 06-04-2021 02:52:17 8.6 C 65 %
Sensor: Nr:Datum:Temp:Feuchte:
G-T/H 451 06-04-2021 03:02:17 8.5 C 65 %
452 06-04-2021 03:12:17 8.5 C 65 %
453 06-04-2021 03:22:17 8.5 C 65 %
454 06-04-2021 03:32:17 8.5 C 65 %
455 06-04-2021 03:42:17 8.5 C 65 %
456 06-04-2021 03:52:17 8.5 C 65 %
457 06-04-2021 04:02:17 8.5 C 65 %
458 06-04-2021 04:12:17 8.5 C 65 %
459 06-04-2021 04:22:17 8.4 C 65 %
460 06-04-2021 04:32:17 8.4 C 66 %
461 06-04-2021 04:42:18 8.4 C 66 %
462 06-04-2021 04:52:17 8.4 C 66 %
463 06-04-2021 05:02:18 8.4 C 66 %
464 06-04-2021 05:12:18 8.4 C 66 %
465 06-04-2021 05:22:18 8.4 C 66 %
466 06-04-2021 05:32:17 8.4 C 66 %
467 06-04-2021 05:42:17 8.4 C 66 %
468 06-04-2021 05:52:17 8.3 C 66 %
469 06-04-2021 06:02:17 8.3 C 66 %
470 06-04-2021 06:12:17 8.3 C 66 %
471 06-04-2021 06:22:17 8.3 C 66 %
472 06-04-2021 06:32:17 8.3 C 66 %
473 06-04-2021 06:42:17 8.3 C 66 %
474 06-04-2021 06:52:17 8.3 C 66 %
475 06-04-2021 07:02:17 8.2 C 66 %
Sensor: Nr:Datum:Temp:Feuchte:
G-T/H 476 06-04-2021 07:12:17 8.3 C 66 %
477 06-04-2021 07:22:17 8.2 C 66 %
478 06-04-2021 07:32:17 8.2 C 66 %
479 06-04-2021 07:42:17 8.2 C 66 %
480 06-04-2021 07:52:18 8.2 C 66 %
481 06-04-2021 08:02:17 8.2 C 66 %
482 06-04-2021 08:12:17 8.2 C 66 %
483 06-04-2021 08:22:17 8.2 C 66 %
484 06-04-2021 08:32:17 8.1 C 66 %
485 06-04-2021 08:42:17 8.2 C 66 %
486 06-04-2021 08:52:17 8.2 C 66 %
487 06-04-2021 09:02:17 8.1 C 66 %
488 06-04-2021 09:12:17 8.2 C 66 %
489 06-04-2021 09:22:18 8.1 C 66 %
490 06-04-2021 09:32:17 8.1 C 66 %
491 06-04-2021 09:42:17 8.1 C 66 %
492 06-04-2021 09:52:17 8 C 65 %
493 06-04-2021 10:02:17 7.8 C 62 %
494 06-04-2021 10:12:17 7.9 C 62 %
495 06-04-2021 10:22:17 8 C 61 %
496 06-04-2021 10:32:17 8 C 62 %
497 06-04-2021 10:42:17 8 C 62 %
498 06-04-2021 10:52:17 8 C 62 %
499 06-04-2021 11:02:17 8 C 63 %
500 06-04-2021 11:12:17 8 C 63 %
Sensor: Nr:Datum:Temp:Feuchte:
G-T/H 501 06-04-2021 11:22:17 8 C 63 %
502 06-04-2021 11:32:17 8 C 63 %
503 06-04-2021 11:42:17 8 C 63 %
504 06-04-2021 11:52:17 8.1 C 64 %
505 06-04-2021 12:02:18 8.1 C 64 %
506 06-04-2021 12:12:18 8.1 C 64 %
507 06-04-2021 12:22:17 8 C 64 %
508 06-04-2021 12:32:17 8 C 64 %
509 06-04-2021 12:42:17 8.1 C 64 %
510 06-04-2021 12:52:17 8 C 64 %
511 06-04-2021 13:03:17 8.1 C 64 %
512 06-04-2021 13:12:17 8.1 C 64 %
513 06-04-2021 13:23:17 8.1 C 65 %
514 06-04-2021 13:32:18 8.1 C 65 %
515 06-04-2021 13:42:18 8.1 C 65 %
516 06-04-2021 13:52:17 8.2 C 65 %
517 06-04-2021 14:02:17 8.2 C 65 %
518 06-04-2021 14:12:17 8.1 C 65 %
519 06-04-2021 14:23:17 8.2 C 65 %
520 06-04-2021 14:32:18 8.1 C 65 %
521 06-04-2021 14:42:18 8.2 C 65 %
522 06-04-2021 14:52:17 8.2 C 65 %
523 06-04-2021 15:02:17 8.2 C 65 %
524 06-04-2021 15:12:17 8.2 C 65 %
525 06-04-2021 15:22:17 8.3 C 65 %
Sensor: Nr:Datum:Temp:Feuchte:
G-T/H 526 06-04-2021 15:32:17 8.2 C 65 %
527 06-04-2021 15:42:17 8.2 C 65 %
528 06-04-2021 15:53:17 8.2 C 65 %
529 06-04-2021 16:03:17 8.3 C 65 %
530 06-04-2021 16:13:17 8.2 C 65 %
531 06-04-2021 16:23:17 8.3 C 65 %
532 06-04-2021 16:32:17 8.3 C 65 %
533 06-04-2021 16:42:18 8.3 C 65 %
534 06-04-2021 16:53:17 8.3 C 65 %
535 06-04-2021 17:03:17 8.3 C 65 %
536 06-04-2021 17:13:17 8.4 C 65 %
537 06-04-2021 17:23:17 8.4 C 65 %
538 06-04-2021 17:33:17 8.4 C 65 %
539 06-04-2021 17:43:17 8.4 C 65 %
540 06-04-2021 17:52:17 8.4 C 65 %
541 06-04-2021 18:03:17 8.4 C 65 %
542 06-04-2021 18:13:17 8.4 C 65 %
543 06-04-2021 18:23:17 8.4 C 65 %
544 06-04-2021 18:33:17 8.4 C 65 %
545 06-04-2021 18:43:17 8.4 C 65 %
546 06-04-2021 18:52:17 8.4 C 65 %
547 06-04-2021 19:03:17 8.4 C 65 %
548 06-04-2021 19:13:17 8.4 C 65 %
549 06-04-2021 19:23:17 8.4 C 65 %
550 06-04-2021 19:32:18 8.4 C 65 %
Sensor: Nr:Datum:Temp:Feuchte:
G-T/H 551 06-04-2021 19:42:18 8.4 C 65 %
552 06-04-2021 19:53:17 8.4 C 65 %
553 06-04-2021 20:03:17 8.4 C 65 %
554 06-04-2021 20:13:17 8.4 C 66 %
555 06-04-2021 20:23:17 8.4 C 66 %
556 06-04-2021 20:32:18 8.4 C 66 %
557 06-04-2021 20:42:18 8.4 C 66 %
558 06-04-2021 20:53:17 8.4 C 66 %
559 06-04-2021 21:03:17 8.4 C 66 %
560 06-04-2021 21:13:17 8.4 C 66 %
561 06-04-2021 21:23:17 8.4 C 66 %
562 06-04-2021 21:32:18 8.4 C 66 %
563 06-04-2021 21:42:18 8.4 C 66 %
564 06-04-2021 21:53:17 8.4 C 66 %
565 06-04-2021 22:03:17 8.4 C 66 %
566 06-04-2021 22:13:17 8.4 C 66 %
567 06-04-2021 22:23:17 8.4 C 66 %
568 06-04-2021 22:33:17 8.4 C 66 %
569 06-04-2021 22:43:17 8.4 C 66 %
570 06-04-2021 22:53:17 8.4 C 66 %
571 06-04-2021 23:03:17 8.4 C 66 %
572 06-04-2021 23:13:17 8.4 C 66 %
573 06-04-2021 23:23:17 8.3 C 66 %
574 06-04-2021 23:32:18 8.4 C 66 %
575 06-04-2021 23:42:18 8.4 C 66 %
Sensor: Nr:Datum:Temp:Feuchte:
G-T/H 576 06-04-2021 23:53:18 8.4 C 66 %
577 07-04-2021 00:03:17 8.4 C 66 %
578 07-04-2021 00:13:17 8.3 C 66 %
579 07-04-2021 00:23:17 8.3 C 66 %
580 07-04-2021 00:33:17 8.3 C 66 %
581 07-04-2021 00:43:17 8.3 C 66 %
582 07-04-2021 00:53:17 8.3 C 66 %
583 07-04-2021 01:03:17 8.3 C 66 %
584 07-04-2021 01:13:18 8.3 C 66 %
585 07-04-2021 01:23:17 8.2 C 66 %
586 07-04-2021 01:33:17 8.2 C 66 %
587 07-04-2021 01:43:17 8.2 C 66 %
588 07-04-2021 01:53:18 8.2 C 66 %
589 07-04-2021 02:03:17 8.2 C 66 %
590 07-04-2021 02:13:17 8.2 C 66 %
591 07-04-2021 02:23:17 8.2 C 66 %
592 07-04-2021 02:33:17 8.2 C 66 %
593 07-04-2021 02:43:17 8.2 C 66 %
594 07-04-2021 02:53:18 8.1 C 66 %
595 07-04-2021 03:03:17 8.2 C 66 %
596 07-04-2021 03:13:17 8.1 C 66 %
597 07-04-2021 03:23:17 8.1 C 66 %
598 07-04-2021 03:33:17 8.1 C 66 %
599 07-04-2021 03:43:17 8.1 C 66 %
600 07-04-2021 03:53:17 8.1 C 66 %
Sensor: Nr:Datum:Temp:Feuchte:
G-T/H 601 07-04-2021 04:03:17 8.1 C 66 %
602 07-04-2021 04:13:17 8.1 C 66 %
603 07-04-2021 04:23:17 8.1 C 65 %
604 07-04-2021 04:33:17 8 C 65 %
605 07-04-2021 04:43:17 8 C 65 %
606 07-04-2021 04:53:17 8 C 65 %
607 07-04-2021 05:03:18 8 C 65 %
608 07-04-2021 05:13:18 8 C 65 %
609 07-04-2021 05:23:17 8 C 65 %
610 07-04-2021 05:33:17 8 C 65 %
611 07-04-2021 05:43:17 8 C 65 %
612 07-04-2021 05:53:18 7.9 C 66 %
613 07-04-2021 06:03:17 7.9 C 66 %
614 07-04-2021 06:13:17 7.9 C 66 %
615 07-04-2021 06:23:17 7.9 C 66 %
616 07-04-2021 06:33:17 7.9 C 66 %
617 07-04-2021 06:43:17 7.9 C 66 %
618 07-04-2021 06:53:17 7.9 C 66 %
619 07-04-2021 07:03:17 7.9 C 66 %
620 07-04-2021 07:13:18 7.8 C 66 %
621 07-04-2021 07:23:17 7.8 C 66 %
622 07-04-2021 07:33:17 7.8 C 66 %
623 07-04-2021 07:43:17 7.8 C 66 %
624 07-04-2021 07:53:17 7.8 C 66 %
625 07-04-2021 08:03:17 7.8 C 66 %
Sensor: Nr:Datum:Temp:Feuchte:
G-T/H 626 07-04-2021 08:13:17 7.8 C 66 %
627 07-04-2021 08:23:17 7.8 C 67 %
628 07-04-2021 08:33:17 7.8 C 67 %
629 07-04-2021 08:43:17 7.7 C 67 %
630 07-04-2021 08:53:17 7.8 C 67 %
631 07-04-2021 09:03:17 7.7 C 67 %
632 07-04-2021 09:13:17 7.7 C 67 %
633 07-04-2021 09:23:17 7.7 C 67 %
634 07-04-2021 09:33:17 7.7 C 67 %
635 07-04-2021 09:43:17 7.7 C 67 %
636 07-04-2021 09:53:17 7.7 C 67 %
637 07-04-2021 10:03:17 7.7 C 67 %
638 07-04-2021 10:13:17 7.7 C 67 %
639 07-04-2021 10:23:17 7.7 C 67 %
640 07-04-2021 10:33:17 7.7 C 67 %
641 07-04-2021 10:43:17 7.7 C 67 %
642 07-04-2021 10:53:17 7.7 C 67 %
643 07-04-2021 11:03:16 7.7 C 67 %
644 07-04-2021 11:13:16 7.7 C 67 %
645 07-04-2021 11:23:17 7.6 C 67 %
646 07-04-2021 11:33:17 7.7 C 67 %
647 07-04-2021 11:43:17 7.6 C 67 %
648 07-04-2021 11:53:16 7.6 C 67 %
649 07-04-2021 12:03:17 7.6 C 67 %
650 07-04-2021 12:13:17 7.6 C 67 %
Sensor: Nr:Datum:Temp:Feuchte:
G-T/H 651 07-04-2021 12:23:17 7.6 C 67 %
652 07-04-2021 12:33:16 7.7 C 67 %
653 07-04-2021 12:43:16 7.7 C 67 %
654 07-04-2021 12:53:16 7.7 C 67 %
655 07-04-2021 13:03:17 7.7 C 67 %
656 07-04-2021 13:13:17 7.7 C 67 %
657 07-04-2021 13:23:17 7.6 C 67 %
658 07-04-2021 13:33:17 7.7 C 67 %
659 07-04-2021 13:43:17 7.6 C 67 %
660 07-04-2021 13:53:16 7.6 C 67 %
661 07-04-2021 14:03:17 7.6 C 68 %
662 07-04-2021 14:13:17 7.6 C 68 %
663 07-04-2021 14:23:16 7.6 C 68 %
664 07-04-2021 14:33:17 7.6 C 68 %
665 07-04-2021 14:43:17 7.6 C 68 %
666 07-04-2021 14:53:17 7.6 C 68 %
667 07-04-2021 15:03:16 7.7 C 68 %
668 07-04-2021 15:13:16 7.6 C 68 %
669 07-04-2021 15:23:17 7.6 C 68 %
670 07-04-2021 15:33:17 7.6 C 68 %
671 07-04-2021 15:43:17 7.6 C 68 %
672 07-04-2021 15:53:16 7.6 C 68 %
673 07-04-2021 16:03:17 7.6 C 68 %
674 07-04-2021 16:13:17 7.6 C 68 %
675 07-04-2021 16:23:16 7.7 C 68 %
Sensor: Nr:Datum:Temp:Feuchte:
G-T/H 676 07-04-2021 16:33:16 7.7 C 68 %
677 07-04-2021 16:43:16 7.6 C 68 %
678 07-04-2021 16:53:16 7.6 C 68 %
679 07-04-2021 17:03:17 7.6 C 68 %
680 07-04-2021 17:13:17 7.7 C 68 %
681 07-04-2021 17:23:17 7.6 C 68 %
682 07-04-2021 17:33:16 7.7 C 68 %
683 07-04-2021 17:43:16 7.7 C 68 %
684 07-04-2021 17:53:17 7.7 C 68 %
685 07-04-2021 18:03:16 7.7 C 68 %
686 07-04-2021 18:13:16 7.6 C 68 %
687 07-04-2021 18:23:17 7.7 C 68 %
688 07-04-2021 18:33:16 7.7 C 68 %
689 07-04-2021 18:43:16 7.7 C 68 %
690 07-04-2021 18:53:16 7.7 C 68 %
691 07-04-2021 19:03:17 7.7 C 68 %
692 07-04-2021 19:13:17 7.7 C 68 %
693 07-04-2021 19:23:16 7.7 C 68 %
694 07-04-2021 19:33:16 7.7 C 68 %
695 07-04-2021 19:43:16 7.7 C 68 %
696 07-04-2021 19:53:16 7.7 C 68 %
697 07-04-2021 20:03:16 7.7 C 68 %
698 07-04-2021 20:13:16 7.7 C 68 %
699 07-04-2021 20:23:16 7.7 C 68 %
700 07-04-2021 20:33:16 7.7 C 68 %
Sensor: Nr:Datum:Temp:Feuchte:
G-T/H 701 07-04-2021 20:43:16 7.7 C 68 %
702 07-04-2021 20:53:16 7.7 C 68 %
703 07-04-2021 21:03:16 7.7 C 68 %
704 07-04-2021 21:13:16 7.7 C 68 %
705 07-04-2021 21:23:16 7.7 C 69 %
706 07-04-2021 21:33:16 7.7 C 69 %
707 07-04-2021 21:43:16 7.7 C 68 %
708 07-04-2021 21:53:16 7.7 C 68 %
709 07-04-2021 22:03:16 7.7 C 68 %
710 07-04-2021 22:13:16 7.7 C 68 %
711 07-04-2021 22:23:16 7.7 C 68 %
712 07-04-2021 22:33:16 7.7 C 68 %
713 07-04-2021 22:43:16 7.7 C 68 %
714 07-04-2021 22:53:17 7.7 C 68 %
715 07-04-2021 23:03:16 7.7 C 68 %
716 07-04-2021 23:13:16 7.7 C 68 %
717 07-04-2021 23:23:16 7.7 C 68 %
718 07-04-2021 23:33:16 7.7 C 68 %
719 07-04-2021 23:43:16 7.7 C 68 %
720 07-04-2021 23:53:16 7.7 C 68 %
721 08-04-2021 00:03:16 7.7 C 68 %
722 08-04-2021 00:13:16 7.7 C 68 %
723 08-04-2021 00:23:16 7.7 C 68 %
724 08-04-2021 00:33:16 7.7 C 68 %
725 08-04-2021 00:43:16 7.7 C 68 %
Sensor: Nr:Datum:Temp:Feuchte:
G-T/H 726 08-04-2021 00:53:16 7.7 C 68 %
727 08-04-2021 01:03:16 7.7 C 68 %
728 08-04-2021 01:13:16 7.7 C 68 %
729 08-04-2021 01:23:16 7.7 C 68 %
730 08-04-2021 01:33:16 7.7 C 68 %
731 08-04-2021 01:43:17 7.7 C 68 %
732 08-04-2021 01:53:16 7.7 C 68 %
733 08-04-2021 02:03:16 7.6 C 68 %
734 08-04-2021 02:13:16 7.7 C 68 %
735 08-04-2021 02:23:16 7.6 C 68 %
736 08-04-2021 02:33:15 7.6 C 68 %
737 08-04-2021 02:43:15 7.6 C 68 %
738 08-04-2021 02:53:17 7.6 C 68 %
739 08-04-2021 03:03:17 7.6 C 68 %
740 08-04-2021 03:13:17 7.6 C 68 %
741 08-04-2021 03:23:17 7.6 C 68 %
742 08-04-2021 03:33:18 7.6 C 68 %
743 08-04-2021 03:43:18 7.6 C 68 %
744 08-04-2021 03:53:17 7.6 C 68 %
745 08-04-2021 04:03:17 7.6 C 68 %
746 08-04-2021 04:13:17 7.6 C 68 %
747 08-04-2021 04:23:17 7.6 C 68 %
748 08-04-2021 04:33:17 7.6 C 68 %
749 08-04-2021 04:43:17 7.6 C 68 %
750 08-04-2021 04:53:17 7.6 C 68 %
Sensor: Nr:Datum:Temp:Feuchte:
G-T/H 751 08-04-2021 05:03:18 7.6 C 68 %
752 08-04-2021 05:13:18 7.6 C 68 %
753 08-04-2021 05:23:17 7.6 C 68 %
754 08-04-2021 05:33:17 7.6 C 68 %
755 08-04-2021 05:43:17 7.5 C 68 %
756 08-04-2021 05:53:18 7.5 C 68 %
757 08-04-2021 06:03:17 7.6 C 68 %
758 08-04-2021 06:13:17 7.5 C 68 %
759 08-04-2021 06:23:17 7.6 C 68 %
760 08-04-2021 06:33:17 7.6 C 68 %
761 08-04-2021 06:43:17 7.5 C 68 %
762 08-04-2021 06:53:18 7.5 C 68 %
763 08-04-2021 07:03:17 7.5 C 68 %
764 08-04-2021 07:13:17 7.5 C 68 %
765 08-04-2021 07:23:17 7.5 C 68 %
766 08-04-2021 07:33:17 7.5 C 68 %
767 08-04-2021 07:43:17 7.5 C 68 %
768 08-04-2021 07:53:17 7.5 C 68 %
769 08-04-2021 08:03:18 7.5 C 68 %
770 08-04-2021 08:13:18 7.5 C 68 %
771 08-04-2021 08:23:18 7.5 C 68 %
772 08-04-2021 08:33:17 7.5 C 68 %
773 08-04-2021 08:43:17 7.5 C 68 %
774 08-04-2021 08:53:17 7.5 C 68 %
775 08-04-2021 09:03:17 7.5 C 68 %
Sensor: Nr:Datum:Temp:Feuchte:
G-T/H 776 08-04-2021 09:13:17 7.5 C 68 %
777 08-04-2021 09:23:17 7.5 C 68 %
778 08-04-2021 09:33:18 7.5 C 68 %
779 08-04-2021 09:43:18 7.5 C 68 %
780 08-04-2021 09:53:17 7.5 C 68 %
781 08-04-2021 10:03:17 7.6 C 68 %
782 08-04-2021 10:13:17 7.5 C 68 %
783 08-04-2021 10:23:17 7.5 C 68 %
784 08-04-2021 10:33:17 7.5 C 68 %
785 08-04-2021 10:43:17 7.5 C 68 %
786 08-04-2021 10:53:17 7.6 C 68 %
787 08-04-2021 11:03:17 7.5 C 68 %
788 08-04-2021 11:13:17 7.6 C 68 %
789 08-04-2021 11:23:17 7.6 C 68 %
790 08-04-2021 11:33:17 7.6 C 68 %
791 08-04-2021 11:43:17 7.6 C 68 %
792 08-04-2021 11:53:17 7.6 C 68 %
793 08-04-2021 12:03:17 7.6 C 68 %
794 08-04-2021 12:13:17 7.7 C 68 %
795 08-04-2021 12:23:17 7.7 C 68 %
796 08-04-2021 12:33:17 7.7 C 68 %
797 08-04-2021 12:43:17 7.7 C 68 %
798 08-04-2021 12:53:17 7.7 C 68 %
799 08-04-2021 13:03:17 7.8 C 68 %
800 08-04-2021 13:13:17 7.8 C 68 %
Sensor: Nr:Datum:Temp:Feuchte:
G-T/H 801 08-04-2021 13:23:17 7.8 C 68 %
802 08-04-2021 13:33:17 7.8 C 68 %
803 08-04-2021 13:43:17 7.8 C 68 %
804 08-04-2021 13:53:17 7.9 C 68 %
805 08-04-2021 14:03:17 7.9 C 68 %
806 08-04-2021 14:13:17 7.9 C 68 %
807 08-04-2021 14:23:17 7.9 C 68 %
808 08-04-2021 14:33:17 8 C 68 %
809 08-04-2021 14:43:17 8 C 68 %
810 08-04-2021 14:53:17 8 C 68 %
811 08-04-2021 15:03:17 8 C 68 %
812 08-04-2021 15:13:17 8 C 68 %
813 08-04-2021 15:23:17 8.1 C 68 %
814 08-04-2021 15:33:17 8.1 C 68 %
815 08-04-2021 15:43:18 8.1 C 68 %
816 08-04-2021 15:53:17 8.1 C 68 %
817 08-04-2021 16:03:17 8.1 C 68 %
818 08-04-2021 16:13:17 8.2 C 68 %
819 08-04-2021 16:23:17 8.2 C 68 %
820 08-04-2021 16:33:17 8.2 C 68 %
821 08-04-2021 16:43:17 8.2 C 68 %
822 08-04-2021 16:53:18 8.2 C 68 %
823 08-04-2021 17:03:17 8.2 C 68 %
824 08-04-2021 17:13:18 8.3 C 68 %
825 08-04-2021 17:23:17 8.3 C 68 %
Sensor: Nr:Datum:Temp:Feuchte:
G-T/H 826 08-04-2021 17:33:17 8.3 C 68 %
827 08-04-2021 17:43:17 8.3 C 68 %
828 08-04-2021 17:53:17 8.4 C 68 %
829 08-04-2021 18:03:17 8.4 C 68 %
830 08-04-2021 18:13:17 8.5 C 68 %
831 08-04-2021 18:23:17 8.5 C 68 %
832 08-04-2021 18:33:17 8.5 C 68 %
833 08-04-2021 18:43:17 8.5 C 68 %
834 08-04-2021 18:53:17 8.5 C 68 %
835 08-04-2021 19:03:17 8.6 C 68 %
836 08-04-2021 19:13:17 8.5 C 68 %
837 08-04-2021 19:23:17 8.6 C 68 %
838 08-04-2021 19:33:17 8.6 C 68 %
839 08-04-2021 19:43:17 8.6 C 68 %
840 08-04-2021 19:53:17 8.6 C 68 %
841 08-04-2021 20:03:17 8.6 C 68 %
842 08-04-2021 20:13:17 8.6 C 68 %
843 08-04-2021 20:23:17 8.6 C 68 %
844 08-04-2021 20:33:17 8.6 C 68 %
845 08-04-2021 20:43:17 8.6 C 68 %
846 08-04-2021 20:53:18 8.6 C 68 %
847 08-04-2021 21:03:17 8.6 C 68 %
848 08-04-2021 21:13:17 8.6 C 68 %
849 08-04-2021 21:23:17 8.6 C 68 %
850 08-04-2021 21:33:17 8.6 C 68 %
Sensor: Nr:Datum:Temp:Feuchte:
G-T/H 851 08-04-2021 21:43:17 8.6 C 68 %
852 08-04-2021 21:53:17 8.6 C 68 %
853 08-04-2021 22:03:18 8.6 C 68 %
854 08-04-2021 22:13:18 8.6 C 68 %
855 08-04-2021 22:23:17 8.6 C 68 %
856 08-04-2021 22:33:17 8.6 C 68 %
857 08-04-2021 22:43:17 8.6 C 68 %
858 08-04-2021 22:53:18 8.6 C 68 %
859 08-04-2021 23:03:17 8.6 C 68 %
860 08-04-2021 23:13:17 8.6 C 68 %
861 08-04-2021 23:23:17 8.6 C 68 %
862 08-04-2021 23:33:18 8.6 C 68 %
863 08-04-2021 23:43:18 8.6 C 68 %
864 08-04-2021 23:53:17 8.6 C 68 %
865 09-04-2021 00:03:17 8.6 C 68 %
866 09-04-2021 00:13:17 8.6 C 68 %
867 09-04-2021 00:23:17 8.6 C 68 %
868 09-04-2021 00:33:18 8.6 C 68 %
869 09-04-2021 00:43:18 8.6 C 68 %
870 09-04-2021 00:53:17 8.6 C 68 %
871 09-04-2021 01:03:17 8.6 C 68 %
872 09-04-2021 01:13:17 8.6 C 68 %
873 09-04-2021 01:23:17 8.6 C 68 %
874 09-04-2021 01:33:17 8.6 C 68 %
875 09-04-2021 01:43:17 8.5 C 68 %
Sensor: Nr:Datum:Temp:Feuchte:
G-T/H 876 09-04-2021 01:53:18 8.5 C 68 %
877 09-04-2021 02:03:17 8.5 C 68 %
878 09-04-2021 02:13:17 8.5 C 68 %
879 09-04-2021 02:23:17 8.5 C 68 %
880 09-04-2021 02:33:17 8.5 C 68 %
881 09-04-2021 02:43:17 8.5 C 68 %
882 09-04-2021 02:53:18 8.5 C 68 %
883 09-04-2021 03:03:17 8.4 C 68 %
884 09-04-2021 03:13:17 8.4 C 68 %
885 09-04-2021 03:23:17 8.4 C 67 %
886 09-04-2021 03:33:17 8.4 C 67 %
887 09-04-2021 03:43:17 8.4 C 67 %
888 09-04-2021 03:53:18 8.4 C 67 %
889 09-04-2021 04:03:17 8.4 C 67 %
890 09-04-2021 04:13:17 8.4 C 67 %
891 09-04-2021 04:23:17 8.4 C 67 %
892 09-04-2021 04:33:17 8.4 C 67 %
893 09-04-2021 04:43:17 8.3 C 67 %
894 09-04-2021 04:53:17 8.3 C 67 %
895 09-04-2021 05:03:18 8.3 C 67 %
896 09-04-2021 05:13:18 8.3 C 67 %
897 09-04-2021 05:23:17 8.2 C 67 %
898 09-04-2021 05:33:17 8.2 C 67 %
899 09-04-2021 05:43:17 8.2 C 67 %
900 09-04-2021 05:53:17 8.2 C 67 %
Sensor: Nr:Datum:Temp:Feuchte:
G-T/H 901 09-04-2021 06:03:18 8.2 C 67 %
902 09-04-2021 06:13:18 8.2 C 67 %
903 09-04-2021 06:23:17 8.2 C 67 %
904 09-04-2021 06:33:18 8.2 C 67 %
905 09-04-2021 06:43:18 8.1 C 67 %
906 09-04-2021 06:53:17 8.1 C 67 %
907 09-04-2021 07:03:17 8.1 C 67 %
908 09-04-2021 07:13:17 8.1 C 67 %
909 09-04-2021 07:23:17 8.1 C 67 %
910 09-04-2021 07:33:18 8.1 C 67 %
911 09-04-2021 07:43:18 8.1 C 67 %
912 09-04-2021 07:53:17 8.1 C 67 %
913 09-04-2021 08:03:17 8.1 C 67 %
914 09-04-2021 08:13:17 8 C 67 %
915 09-04-2021 08:23:17 8.1 C 67 %
916 09-04-2021 08:33:17 8 C 67 %
917 09-04-2021 08:43:17 8 C 67 %
918 09-04-2021 08:53:17 8 C 67 %
919 09-04-2021 09:03:17 8 C 67 %
920 09-04-2021 09:13:17 8 C 67 %
921 09-04-2021 09:23:17 8 C 67 %
922 09-04-2021 09:33:17 8 C 67 %
923 09-04-2021 09:43:17 8 C 67 %
924 09-04-2021 09:53:18 8 C 67 %
925 09-04-2021 10:03:17 8 C 67 %
Sensor: Nr:Datum:Temp:Feuchte:
G-T/H 926 09-04-2021 10:13:17 8 C 67 %
927 09-04-2021 10:23:17 8 C 67 %
928 09-04-2021 10:33:17 8 C 67 %
929 09-04-2021 10:43:17 8 C 67 %
930 09-04-2021 10:53:17 8 C 68 %
931 09-04-2021 11:03:17 8 C 68 %
932 09-04-2021 11:13:17 8 C 68 %
933 09-04-2021 11:23:17 8 C 68 %
934 09-04-2021 11:33:18 8 C 68 %
935 09-04-2021 11:43:18 8.1 C 68 %
936 09-04-2021 11:53:17 8.1 C 68 %
937 09-04-2021 12:03:17 8.1 C 68 %
938 09-04-2021 12:13:17 8.1 C 68 %
939 09-04-2021 12:23:17 8.1 C 68 %
940 09-04-2021 12:33:17 8.2 C 68 %
941 09-04-2021 12:43:17 8.2 C 68 %
942 09-04-2021 12:53:18 8.2 C 68 %
943 09-04-2021 13:03:17 8.2 C 68 %
944 09-04-2021 13:13:17 8.2 C 68 %
945 09-04-2021 13:23:17 8.3 C 68 %
946 09-04-2021 13:33:17 8.3 C 68 %
947 09-04-2021 13:43:17 8.4 C 68 %
948 09-04-2021 13:53:17 8.4 C 68 %
949 09-04-2021 14:03:17 8.4 C 68 %
950 09-04-2021 14:13:18 8.5 C 68 %
Sensor: Nr:Datum:Temp:Feuchte:
G-T/H 951 09-04-2021 14:23:17 8.5 C 68 %
952 09-04-2021 14:33:17 8.5 C 68 %
953 09-04-2021 14:43:17 8.6 C 68 %
954 09-04-2021 14:53:17 8.6 C 68 %
955 09-04-2021 15:03:17 8.6 C 68 %
956 09-04-2021 15:13:18 8.7 C 68 %
957 09-04-2021 15:23:17 8.7 C 68 %
958 09-04-2021 15:33:17 8.7 C 68 %
959 09-04-2021 15:43:17 8.7 C 68 %
960 09-04-2021 15:53:18 8.7 C 68 %
961 09-04-2021 16:03:17 9 C 66 %
962 09-04-2021 16:13:17 10.1 C 66 %
963 09-04-2021 16:23:17 9.6 C 57 %
964 09-04-2021 16:33:17 9.4 C 58 %
965 09-04-2021 16:43:17 9.3 C 59 %
966 09-04-2021 16:53:17 9.3 C 60 %
967 09-04-2021 17:03:17 9.2 C 61 %
968 09-04-2021 17:13:17 9.3 C 61 %
969 09-04-2021 17:23:17 9.3 C 62 %
970 09-04-2021 17:33:18 9.3 C 62 %
971 09-04-2021 17:43:18 9.3 C 63 %
972 09-04-2021 17:53:17 9.3 C 63 %
973 09-04-2021 18:03:17 9.3 C 63 %
974 09-04-2021 18:13:17 9.3 C 64 %
975 09-04-2021 18:23:18 9.4 C 64 %
Sensor: Nr:Datum:Temp:Feuchte:
G-T/H 976 09-04-2021 18:33:17 9.4 C 64 %
977 09-04-2021 18:43:17 9.4 C 64 %
978 09-04-2021 18:53:17 9.4 C 64 %
979 09-04-2021 19:03:17 9.5 C 64 %
980 09-04-2021 19:13:17 9.5 C 65 %
981 09-04-2021 19:23:17 9.5 C 65 %
982 09-04-2021 19:33:17 9.5 C 65 %
983 09-04-2021 19:43:17 9.5 C 65 %
984 09-04-2021 19:53:18 9.6 C 65 %
985 09-04-2021 20:03:17 9.6 C 65 %
986 09-04-2021 20:13:17 9.6 C 65 %
987 09-04-2021 20:23:17 9.6 C 65 %
988 09-04-2021 20:33:17 9.6 C 65 %
989 09-04-2021 20:43:17 9.6 C 66 %
990 09-04-2021 20:53:17 9.7 C 66 %
991 09-04-2021 21:03:17 9.6 C 66 %
992 09-04-2021 21:13:17 9.7 C 66 %
993 09-04-2021 21:23:17 9.7 C 66 %
994 09-04-2021 21:33:17 9.7 C 66 %
995 09-04-2021 21:43:17 9.7 C 66 %
996 09-04-2021 21:53:17 9.7 C 66 %
997 09-04-2021 22:03:18 9.8 C 66 %
998 09-04-2021 22:13:18 9.8 C 66 %
999 09-04-2021 22:23:18 9.8 C 66 %
1000 09-04-2021 22:33:17 9.8 C 67 %
Sensor: Nr:Datum:Temp:Feuchte:
G-T/H 1001 09-04-2021 22:43:17 9.8 C 67 %
1002 09-04-2021 22:53:17 9.8 C 67 %
1003 09-04-2021 23:03:18 9.8 C 67 %
1004 09-04-2021 23:13:18 9.9 C 67 %
1005 09-04-2021 23:23:17 9.9 C 67 %
1006 09-04-2021 23:33:17 9.9 C 67 %
1007 09-04-2021 23:43:17 9.9 C 67 %
1008 09-04-2021 23:53:18 9.9 C 67 %
1009 10-04-2021 00:03:17 9.9 C 67 %
1010 10-04-2021 00:13:17 9.9 C 67 %
1011 10-04-2021 00:23:17 9.9 C 67 %
1012 10-04-2021 00:33:18 10 C 67 %
1013 10-04-2021 00:43:18 9.9 C 68 %
1014 10-04-2021 00:53:17 9.9 C 68 %
1015 10-04-2021 01:03:17 10 C 67 %
1016 10-04-2021 01:13:17 10 C 67 %
1017 10-04-2021 01:23:17 10 C 67 %
1018 10-04-2021 01:33:17 10 C 67 %
1019 10-04-2021 01:43:17 10 C 67 %
1020 10-04-2021 01:53:18 10 C 67 %
1021 10-04-2021 02:03:17 10 C 67 %
1022 10-04-2021 02:13:17 10 C 67 %
1023 10-04-2021 02:23:17 10 C 67 %
1024 10-04-2021 02:33:17 10 C 67 %
1025 10-04-2021 02:43:17 10 C 67 %
Sensor: Nr:Datum:Temp:Feuchte:
G-T/H 1026 10-04-2021 02:53:17 10 C 67 %
1027 10-04-2021 03:03:17 10.1 C 67 %
1028 10-04-2021 03:13:17 10 C 67 %
1029 10-04-2021 03:23:17 10 C 68 %
1030 10-04-2021 03:33:17 10.1 C 68 %
1031 10-04-2021 03:43:17 10 C 68 %
1032 10-04-2021 03:53:17 10 C 68 %
1033 10-04-2021 04:03:17 10.1 C 68 %
1034 10-04-2021 04:13:17 10 C 68 %
1035 10-04-2021 04:23:17 10.1 C 68 %
1036 10-04-2021 04:33:17 10.1 C 68 %
1037 10-04-2021 04:43:17 10.1 C 68 %
1038 10-04-2021 04:53:17 10.1 C 68 %
1039 10-04-2021 05:03:17 10.1 C 68 %
1040 10-04-2021 05:13:17 10.1 C 68 %
1041 10-04-2021 05:23:17 10.1 C 68 %
1042 10-04-2021 05:33:17 10.1 C 68 %
1043 10-04-2021 05:43:17 10.1 C 68 %
1044 10-04-2021 05:53:17 10.1 C 68 %
1045 10-04-2021 06:03:17 10.1 C 68 %
1046 10-04-2021 06:13:17 10.1 C 68 %
1047 10-04-2021 06:23:17 10.1 C 68 %
1048 10-04-2021 06:33:17 10.1 C 68 %
1049 10-04-2021 06:43:17 10.1 C 68 %
1050 10-04-2021 06:53:18 10.1 C 68 %
Sensor: Nr:Datum:Temp:Feuchte:
G-T/H 1051 10-04-2021 07:03:17 10.1 C 68 %
1052 10-04-2021 07:13:17 10.1 C 68 %
1053 10-04-2021 07:23:17 10.1 C 68 %
1054 10-04-2021 07:33:17 10.1 C 68 %
1055 10-04-2021 07:43:17 10.1 C 68 %
1056 10-04-2021 07:53:17 10.1 C 68 %
1057 10-04-2021 08:03:17 10.1 C 68 %
1058 10-04-2021 08:13:17 10.1 C 68 %
1059 10-04-2021 08:23:17 10.1 C 68 %
1060 10-04-2021 08:33:17 10.1 C 68 %
1061 10-04-2021 08:43:17 10.1 C 69 %
1062 10-04-2021 08:53:18 10.1 C 69 %
1063 10-04-2021 09:03:17 10.1 C 69 %
1064 10-04-2021 09:13:17 10.1 C 69 %
1065 10-04-2021 09:23:17 10.2 C 69 %
1066 10-04-2021 09:33:18 10.1 C 69 %
1067 10-04-2021 09:43:18 10.1 C 69 %
1068 10-04-2021 09:53:17 10.2 C 69 %
1069 10-04-2021 10:03:17 10.2 C 69 %
1070 10-04-2021 10:13:17 10.2 C 69 %
1071 10-04-2021 10:23:17 10.2 C 69 %
1072 10-04-2021 10:33:17 10.2 C 69 %
1073 10-04-2021 10:43:17 10.2 C 69 %
1074 10-04-2021 10:53:17 10.2 C 69 %
1075 10-04-2021 11:03:17 10.2 C 69 %
Sensor: Nr:Datum:Temp:Feuchte:
G-T/H 1076 10-04-2021 11:13:17 10.2 C 69 %
1077 10-04-2021 11:23:17 10.2 C 69 %
1078 10-04-2021 11:33:17 10.2 C 69 %
1079 10-04-2021 11:43:17 10.2 C 69 %
1080 10-04-2021 11:53:17 10.2 C 69 %
1081 10-04-2021 12:03:17 10.2 C 69 %
1082 10-04-2021 12:13:17 10.3 C 69 %
1083 10-04-2021 12:23:17 10.3 C 69 %
1084 10-04-2021 12:33:17 10.3 C 69 %
1085 10-04-2021 12:43:17 10.3 C 69 %
1086 10-04-2021 12:53:17 10.3 C 69 %
1087 10-04-2021 13:03:17 10.3 C 69 %
1088 10-04-2021 13:13:17 10.4 C 69 %
1089 10-04-2021 13:23:17 10.3 C 69 %
1090 10-04-2021 13:33:18 10.4 C 69 %
1091 10-04-2021 13:43:18 10.4 C 69 %
1092 10-04-2021 13:53:17 10.4 C 69 %
1093 10-04-2021 14:03:17 10.4 C 69 %
1094 10-04-2021 14:13:17 10.4 C 69 %
1095 10-04-2021 14:23:17 10.4 C 69 %
1096 10-04-2021 14:33:17 10.4 C 69 %
1097 10-04-2021 14:43:17 10.4 C 69 %
1098 10-04-2021 14:53:17 10.4 C 69 %
1099 10-04-2021 15:03:17 10.4 C 69 %
1100 10-04-2021 15:13:17 10.4 C 69 %
Sensor: Nr:Datum:Temp:Feuchte:
G-T/H 1101 10-04-2021 15:23:17 10.4 C 69 %
1102 10-04-2021 15:33:17 10.4 C 69 %
1103 10-04-2021 15:43:17 10.5 C 69 %
1104 10-04-2021 15:53:17 10.5 C 69 %
1105 10-04-2021 16:03:17 10.5 C 69 %
1106 10-04-2021 16:13:17 10.5 C 69 %
1107 10-04-2021 16:23:17 10.5 C 69 %
1108 10-04-2021 16:33:18 10.5 C 69 %
1109 10-04-2021 16:43:18 10.5 C 69 %
1110 10-04-2021 16:53:17 10.5 C 69 %
1111 10-04-2021 17:03:17 10.5 C 70 %
1112 10-04-2021 17:13:17 10.5 C 70 %
1113 10-04-2021 17:23:17 10.6 C 70 %
1114 10-04-2021 17:33:17 10.6 C 70 %
1115 10-04-2021 17:43:17 10.6 C 70 %
1116 10-04-2021 17:53:18 10.6 C 70 %
1117 10-04-2021 18:03:17 10.6 C 70 %
1118 10-04-2021 18:13:17 10.6 C 70 %
1119 10-04-2021 18:23:17 10.6 C 70 %
1120 10-04-2021 18:33:17 10.6 C 70 %
1121 10-04-2021 18:43:17 10.6 C 70 %
1122 10-04-2021 18:53:17 10.6 C 70 %
1123 10-04-2021 19:03:17 10.6 C 70 %
1124 10-04-2021 19:13:17 10.6 C 70 %
1125 10-04-2021 19:23:17 10.6 C 70 %
Sensor: Nr:Datum:Temp:Feuchte:
G-T/H 1126 10-04-2021 19:33:17 10.6 C 70 %
1127 10-04-2021 19:43:18 10.6 C 70 %
1128 10-04-2021 19:53:17 10.7 C 70 %
1129 10-04-2021 20:03:17 10.7 C 70 %
1130 10-04-2021 20:13:17 10.7 C 70 %
1131 10-04-2021 20:23:17 10.7 C 70 %
1132 10-04-2021 20:33:17 10.7 C 70 %
1133 10-04-2021 20:43:17 10.7 C 70 %
1134 10-04-2021 20:53:18 10.7 C 70 %
1135 10-04-2021 21:03:17 10.7 C 70 %
1136 10-04-2021 21:13:17 10.7 C 70 %
1137 10-04-2021 21:23:17 10.7 C 70 %
1138 10-04-2021 21:33:17 10.7 C 70 %
1139 10-04-2021 21:43:17 10.7 C 70 %
1140 10-04-2021 21:53:18 10.7 C 70 %
1141 10-04-2021 22:03:18 10.7 C 70 %
1142 10-04-2021 22:13:18 10.7 C 70 %
1143 10-04-2021 22:23:18 10.7 C 70 %
1144 10-04-2021 22:33:17 10.7 C 70 %
1145 10-04-2021 22:43:17 10.7 C 70 %
1146 10-04-2021 22:53:17 10.7 C 70 %
1147 10-04-2021 23:03:17 10.7 C 70 %
1148 10-04-2021 23:13:17 10.7 C 70 %
1149 10-04-2021 23:23:17 10.7 C 70 %
1150 10-04-2021 23:33:18 10.7 C 70 %
Sensor: Nr:Datum:Temp:Feuchte:
G-T/H 1151 10-04-2021 23:43:18 10.7 C 70 %
1152 10-04-2021 23:53:18 10.7 C 70 %
1153 11-04-2021 00:03:17 10.7 C 70 %
1154 11-04-2021 00:13:17 10.7 C 70 %
1155 11-04-2021 00:23:17 10.7 C 70 %
1156 11-04-2021 00:33:17 10.7 C 70 %
1157 11-04-2021 00:43:17 10.7 C 70 %
1158 11-04-2021 00:53:17 10.7 C 70 %
1159 11-04-2021 01:03:17 10.7 C 70 %
1160 11-04-2021 01:13:17 10.7 C 70 %
1161 11-04-2021 01:23:17 10.7 C 70 %
1162 11-04-2021 01:33:18 10.7 C 70 %
1163 11-04-2021 01:43:18 10.7 C 70 %
1164 11-04-2021 01:53:17 10.7 C 70 %
1165 11-04-2021 02:03:17 10.7 C 70 %
1166 11-04-2021 02:13:17 10.7 C 70 %
1167 11-04-2021 02:23:17 10.7 C 70 %
1168 11-04-2021 02:33:17 10.7 C 70 %
1169 11-04-2021 02:43:17 10.7 C 70 %
1170 11-04-2021 02:53:18 10.7 C 70 %
1171 11-04-2021 03:03:17 10.7 C 70 %
1172 11-04-2021 03:13:17 10.7 C 70 %
1173 11-04-2021 03:23:17 10.7 C 70 %
1174 11-04-2021 03:33:17 10.7 C 70 %
1175 11-04-2021 03:43:17 10.7 C 70 %
Sensor: Nr:Datum:Temp:Feuchte:
G-T/H 1176 11-04-2021 03:53:17 10.7 C 70 %
1177 11-04-2021 04:03:17 10.7 C 70 %
1178 11-04-2021 04:13:17 10.7 C 70 %
1179 11-04-2021 04:23:17 10.7 C 70 %
1180 11-04-2021 04:33:18 10.7 C 70 %
1181 11-04-2021 04:43:18 10.7 C 70 %
1182 11-04-2021 04:53:17 10.7 C 70 %
1183 11-04-2021 05:03:17 10.7 C 70 %
1184 11-04-2021 05:13:17 10.7 C 70 %
1185 11-04-2021 05:23:17 10.7 C 70 %
1186 11-04-2021 05:33:17 10.7 C 70 %
1187 11-04-2021 05:43:17 10.7 C 70 %
1188 11-04-2021 05:53:18 10.7 C 70 %
1189 11-04-2021 06:03:17 10.7 C 70 %
1190 11-04-2021 06:13:17 10.7 C 70 %
1191 11-04-2021 06:23:17 10.7 C 70 %
1192 11-04-2021 06:33:17 10.7 C 70 %
1193 11-04-2021 06:43:17 10.7 C 70 %
1194 11-04-2021 06:53:17 10.7 C 70 %
1195 11-04-2021 07:03:17 10.7 C 70 %
1196 11-04-2021 07:13:17 10.7 C 70 %
1197 11-04-2021 07:23:18 10.7 C 71 %
1198 11-04-2021 07:33:17 10.7 C 71 %
1199 11-04-2021 07:43:17 10.7 C 71 %
1200 11-04-2021 07:53:17 10.7 C 71 %
Sensor: Nr:Datum:Temp:Feuchte:
G-T/H 1201 11-04-2021 08:03:17 10.7 C 71 %
1202 11-04-2021 08:13:17 10.7 C 71 %
1203 11-04-2021 08:23:17 10.7 C 71 %
1204 11-04-2021 08:33:17 10.7 C 71 %
1205 11-04-2021 08:43:17 10.7 C 71 %
1206 11-04-2021 08:53:17 10.7 C 71 %
1207 11-04-2021 09:03:18 10.7 C 71 %
1208 11-04-2021 09:13:18 10.7 C 71 %
1209 11-04-2021 09:23:17 10.7 C 71 %
1210 11-04-2021 09:33:18 10.7 C 71 %
1211 11-04-2021 09:43:18 10.7 C 71 %
1212 11-04-2021 09:53:18 10.7 C 71 %
1213 11-04-2021 10:03:17 10.7 C 71 %
1214 11-04-2021 10:13:17 10.7 C 71 %
1215 11-04-2021 10:23:17 10.7 C 71 %
1216 11-04-2021 10:33:17 10.7 C 71 %
1217 11-04-2021 10:43:17 10.7 C 71 %
1218 11-04-2021 10:53:18 10.7 C 71 %
1219 11-04-2021 11:03:17 10.7 C 71 %
1220 11-04-2021 11:13:17 10.7 C 71 %
1221 11-04-2021 11:23:17 10.7 C 71 %
1222 11-04-2021 11:33:17 10.7 C 71 %
1223 11-04-2021 11:43:17 10.6 C 71 %
1224 11-04-2021 11:53:18 10.7 C 71 %
1225 11-04-2021 12:03:17 10.7 C 71 %
Sensor: Nr:Datum:Temp:Feuchte:
G-T/H 1226 11-04-2021 12:13:17 10.7 C 70 %
1227 11-04-2021 12:23:17 10.6 C 70 %
1228 11-04-2021 12:33:17 10.6 C 70 %
1229 11-04-2021 12:43:17 10.6 C 70 %
1230 11-04-2021 12:53:18 10.6 C 70 %
1231 11-04-2021 13:03:18 10.6 C 70 %
1232 11-04-2021 13:13:18 10.6 C 70 %
1233 11-04-2021 13:23:18 10.6 C 70 %
1234 11-04-2021 13:33:18 10.6 C 70 %
1235 11-04-2021 13:43:18 10.6 C 70 %
1236 11-04-2021 13:53:17 10.6 C 70 %
1237 11-04-2021 14:03:17 10.6 C 70 %
1238 11-04-2021 14:13:17 10.6 C 70 %
1239 11-04-2021 14:23:17 10.5 C 70 %
1240 11-04-2021 14:33:18 10.5 C 70 %
1241 11-04-2021 14:43:18 10.5 C 70 %
1242 11-04-2021 14:53:17 10.5 C 70 %
1243 11-04-2021 15:03:17 10.5 C 70 %
1244 11-04-2021 15:13:17 10.5 C 70 %
1245 11-04-2021 15:23:17 10.5 C 70 %
1246 11-04-2021 15:33:18 10.5 C 70 %
1247 11-04-2021 15:43:18 10.5 C 70 %
1248 11-04-2021 15:53:17 10.5 C 70 %
1249 11-04-2021 16:03:17 10.5 C 70 %
1250 11-04-2021 16:13:17 10.5 C 70 %
Sensor: Nr:Datum:Temp:Feuchte:
G-T/H 1251 11-04-2021 16:23:17 10.5 C 70 %
1252 11-04-2021 16:33:17 10.5 C 70 %
1253 11-04-2021 16:43:17 10.4 C 70 %
1254 11-04-2021 16:53:18 10.4 C 70 %
1255 11-04-2021 17:03:18 10.4 C 70 %
1256 11-04-2021 17:13:18 10.4 C 70 %
1257 11-04-2021 17:23:18 10.4 C 70 %
1258 11-04-2021 17:33:17 10.4 C 70 %
1259 11-04-2021 17:43:17 10.4 C 70 %
1260 11-04-2021 17:53:17 10.4 C 70 %
1261 11-04-2021 18:03:18 10.4 C 70 %
1262 11-04-2021 18:13:18 10.4 C 70 %
1263 11-04-2021 18:23:17 10.4 C 70 %
1264 11-04-2021 18:33:18 10.3 C 70 %
1265 11-04-2021 18:43:18 10.4 C 70 %
1266 11-04-2021 18:53:17 10.3 C 70 %
1267 11-04-2021 19:03:17 10.3 C 70 %
1268 11-04-2021 19:13:17 10.3 C 70 %
1269 11-04-2021 19:23:17 10.3 C 69 %
1270 11-04-2021 19:33:17 10.3 C 69 %
1271 11-04-2021 19:43:17 10.3 C 69 %
1272 11-04-2021 19:53:18 10.2 C 69 %
1273 11-04-2021 20:03:17 10.2 C 69 %
1274 11-04-2021 20:13:17 10.2 C 69 %
1275 11-04-2021 20:23:17 10.2 C 69 %
Sensor: Nr:Datum:Temp:Feuchte:
G-T/H 1276 11-04-2021 20:33:17 10.2 C 69 %
1277 11-04-2021 20:43:17 10.2 C 69 %
1278 11-04-2021 20:53:18 10.2 C 69 %
1279 11-04-2021 21:03:18 10.2 C 69 %
1280 11-04-2021 21:13:18 10.2 C 69 %
1281 11-04-2021 21:23:17 10.2 C 69 %
1282 11-04-2021 21:33:17 10.1 C 69 %
1283 11-04-2021 21:43:17 10.1 C 69 %
1284 11-04-2021 21:53:17 10.1 C 69 %
1285 11-04-2021 22:03:18 10.1 C 69 %
1286 11-04-2021 22:13:18 10.1 C 69 %
1287 11-04-2021 22:23:18 10.1 C 69 %
1288 11-04-2021 22:33:18 10.1 C 69 %
1289 11-04-2021 22:43:18 10.1 C 69 %
1290 11-04-2021 22:53:17 10 C 69 %
1291 11-04-2021 23:03:17 10 C 69 %
1292 11-04-2021 23:13:17 10 C 69 %
1293 11-04-2021 23:23:17 10 C 69 %
1294 11-04-2021 23:33:18 10 C 69 %
1295 11-04-2021 23:43:18 10 C 69 %
1296 11-04-2021 23:53:18 10 C 69 %
1297 12-04-2021 00:03:17 10 C 69 %
1298 12-04-2021 00:13:17 10 C 69 %
1299 12-04-2021 00:23:17 10 C 69 %
1300 12-04-2021 00:33:17 10 C 69 %
Sensor: Nr:Datum:Temp:Feuchte:
G-T/H 1301 12-04-2021 00:43:17 10 C 69 %
1302 12-04-2021 00:53:18 9.9 C 70 %
1303 12-04-2021 01:03:17 9.9 C 70 %
1304 12-04-2021 01:13:17 9.9 C 70 %
1305 12-04-2021 01:23:17 9.9 C 70 %
1306 12-04-2021 01:33:18 9.9 C 70 %
1307 12-04-2021 01:43:18 9.8 C 70 %
1308 12-04-2021 01:53:18 9.8 C 70 %
1309 12-04-2021 02:03:17 9.8 C 70 %
1310 12-04-2021 02:13:17 9.8 C 70 %
1311 12-04-2021 02:23:17 9.8 C 70 %
1312 12-04-2021 02:33:17 9.8 C 70 %
1313 12-04-2021 02:43:17 9.8 C 70 %
1314 12-04-2021 02:53:18 9.8 C 70 %
1315 12-04-2021 03:03:17 9.7 C 70 %
1316 12-04-2021 03:13:17 9.7 C 70 %
1317 12-04-2021 03:23:17 9.7 C 70 %
1318 12-04-2021 03:33:17 9.7 C 70 %
1319 12-04-2021 03:43:17 9.7 C 70 %
1320 12-04-2021 03:53:17 9.7 C 70 %
1321 12-04-2021 04:03:17 9.6 C 70 %
1322 12-04-2021 04:13:17 9.6 C 70 %
1323 12-04-2021 04:23:18 9.6 C 70 %
1324 12-04-2021 04:33:17 9.6 C 70 %
1325 12-04-2021 04:43:17 9.6 C 70 %
Sensor: Nr:Datum:Temp:Feuchte:
G-T/H 1326 12-04-2021 04:53:17 9.6 C 70 %
1327 12-04-2021 05:03:17 9.6 C 70 %
1328 12-04-2021 05:13:17 9.6 C 70 %
1329 12-04-2021 05:23:18 9.6 C 70 %
1330 12-04-2021 05:33:17 9.5 C 70 %
1331 12-04-2021 05:43:17 9.5 C 70 %
1332 12-04-2021 05:53:17 9.5 C 69 %
1333 12-04-2021 06:03:17 9.5 C 69 %
1334 12-04-2021 06:13:17 9.5 C 69 %
1335 12-04-2021 06:23:18 9.4 C 69 %
1336 12-04-2021 06:33:17 9.5 C 69 %
1337 12-04-2021 06:43:17 9.4 C 69 %
1338 12-04-2021 06:53:18 9.4 C 69 %
1339 12-04-2021 07:03:17 9.4 C 69 %
1340 12-04-2021 07:13:17 9.4 C 69 %
1341 12-04-2021 07:23:17 9.4 C 69 %
1342 12-04-2021 07:33:17 9.3 C 69 %
1343 12-04-2021 07:43:17 9.3 C 69 %
1344 12-04-2021 07:53:18 9.3 C 69 %
1345 12-04-2021 08:03:17 9.3 C 69 %
1346 12-04-2021 08:13:17 9.3 C 69 %
1347 12-04-2021 08:23:17 9.3 C 69 %
1348 12-04-2021 08:33:17 9.3 C 69 %
1349 12-04-2021 08:43:17 9.2 C 69 %
1350 12-04-2021 08:53:17 9.2 C 69 %
Sensor: Nr:Datum:Temp:Feuchte:
G-T/H 1351 12-04-2021 09:03:17 9.2 C 69 %
1352 12-04-2021 09:13:17 9.2 C 69 %
1353 12-04-2021 09:23:18 9.2 C 69 %
1354 12-04-2021 09:33:17 9.2 C 69 %
1355 12-04-2021 09:43:18 9.2 C 69 %
1356 12-04-2021 09:53:17 9.2 C 69 %
1357 12-04-2021 10:03:17 9.2 C 69 %
1358 12-04-2021 10:13:17 9.2 C 69 %
1359 12-04-2021 10:23:17 9.2 C 69 %
1360 12-04-2021 10:33:18 9.2 C 69 %
1361 12-04-2021 10:43:18 9.2 C 69 %
1362 12-04-2021 10:53:17 9.2 C 69 %
1363 12-04-2021 11:03:17 9.2 C 69 %
1364 12-04-2021 11:13:17 9.2 C 69 %
1365 12-04-2021 11:23:17 9.2 C 69 %
1366 12-04-2021 11:33:17 9.2 C 69 %
1367 12-04-2021 11:43:17 9.2 C 69 %
1368 12-04-2021 11:53:17 9.2 C 69 %
1369 12-04-2021 12:03:17 9.2 C 69 %
1370 12-04-2021 12:13:17 9.2 C 69 %
1371 12-04-2021 12:23:17 9.2 C 69 %
1372 12-04-2021 12:33:17 9.2 C 69 %
1373 12-04-2021 12:43:17 9.2 C 69 %
1374 12-04-2021 12:53:17 9.2 C 69 %
1375 12-04-2021 13:03:17 9.2 C 69 %
Sensor: Nr:Datum:Temp:Feuchte:
G-T/H 1376 12-04-2021 13:13:17 9.2 C 69 %
1377 12-04-2021 13:23:17 9.2 C 69 %
1378 12-04-2021 13:33:18 9.2 C 69 %
1379 12-04-2021 13:43:18 9.2 C 69 %
1380 12-04-2021 13:53:17 9.2 C 69 %
1381 12-04-2021 14:03:17 9.2 C 69 %
1382 12-04-2021 14:13:17 9.2 C 69 %
1383 12-04-2021 14:23:17 9.2 C 69 %
1384 12-04-2021 14:33:18 9.2 C 69 %
1385 12-04-2021 14:43:18 9.2 C 69 %
1386 12-04-2021 14:53:18 9.2 C 69 %
1387 12-04-2021 15:03:17 9.3 C 70 %
1388 12-04-2021 15:13:17 9.2 C 70 %
1389 12-04-2021 15:23:17 9.2 C 70 %
1390 12-04-2021 15:33:17 9.2 C 70 %
1391 12-04-2021 15:43:17 9.2 C 70 %
1392 12-04-2021 15:53:18 9.2 C 70 %
1393 12-04-2021 16:03:17 9.3 C 70 %
1394 12-04-2021 16:13:17 9.3 C 70 %
1395 12-04-2021 16:23:17 9.2 C 70 %
1396 12-04-2021 16:33:17 9.3 C 70 %
1397 12-04-2021 16:43:17 9.3 C 70 %
1398 12-04-2021 16:53:17 9.3 C 70 %
1399 12-04-2021 17:03:17 9.3 C 70 %
1400 12-04-2021 17:13:17 9.3 C 70 %
Sensor: Nr:Datum:Temp:Feuchte:
G-T/H 1401 12-04-2021 17:23:17 9.3 C 70 %
1402 12-04-2021 17:33:18 9.3 C 70 %
1403 12-04-2021 17:43:18 9.3 C 69 %
1404 12-04-2021 17:53:17 9.3 C 69 %
1405 12-04-2021 18:03:17 9.3 C 69 %
1406 12-04-2021 18:13:17 9.3 C 70 %
1407 12-04-2021 18:23:18 9.3 C 70 %
1408 12-04-2021 18:33:18 9.3 C 69 %
1409 12-04-2021 18:43:18 9.4 C 69 %
1410 12-04-2021 18:53:17 9.4 C 69 %
1411 12-04-2021 19:03:17 9.4 C 69 %
1412 12-04-2021 19:13:17 9.4 C 69 %
1413 12-04-2021 19:23:17 9.4 C 69 %
1414 12-04-2021 19:33:17 9.4 C 69 %
1415 12-04-2021 19:43:17 9.4 C 69 %
1416 12-04-2021 19:53:18 9.4 C 69 %
1417 12-04-2021 20:03:17 9.4 C 69 %
1418 12-04-2021 20:13:17 9.3 C 69 %
1419 12-04-2021 20:23:17 9.3 C 69 %
1420 12-04-2021 20:33:17 9.3 C 69 %
1421 12-04-2021 20:43:17 9.3 C 69 %
1422 12-04-2021 20:53:17 9.3 C 69 %
1423 12-04-2021 21:03:17 9.3 C 69 %
1424 12-04-2021 21:13:17 9.3 C 69 %
1425 12-04-2021 21:23:17 9.3 C 69 %
Sensor: Nr:Datum:Temp:Feuchte:
G-T/H 1426 12-04-2021 21:33:17 9.3 C 69 %
1427 12-04-2021 21:43:17 9.3 C 69 %
1428 12-04-2021 21:53:18 9.2 C 69 %
1429 12-04-2021 22:03:17 9.2 C 69 %
1430 12-04-2021 22:13:17 9.2 C 69 %
1431 12-04-2021 22:23:17 9.2 C 69 %
1432 12-04-2021 22:33:17 9.2 C 69 %
1433 12-04-2021 22:43:17 9.2 C 69 %
1434 12-04-2021 22:53:17 9.2 C 69 %
1435 12-04-2021 23:03:17 9.2 C 69 %
1436 12-04-2021 23:13:17 9.2 C 69 %
1437 12-04-2021 23:23:17 9.1 C 69 %
1438 12-04-2021 23:33:18 9.1 C 69 %
1439 12-04-2021 23:43:18 9.1 C 69 %
1440 12-04-2021 23:53:17 9.1 C 69 %
1441 13-04-2021 00:03:18 9.1 C 69 %
1442 13-04-2021 00:13:18 9.1 C 69 %
1443 13-04-2021 00:23:18 9.1 C 69 %
1444 13-04-2021 00:33:17 9.1 C 69 %
1445 13-04-2021 00:43:17 9.1 C 69 %
1446 13-04-2021 00:53:18 9 C 69 %
1447 13-04-2021 01:03:17 9 C 69 %
1448 13-04-2021 01:13:17 9 C 69 %
1449 13-04-2021 01:23:17 9 C 68 %
1450 13-04-2021 01:33:17 9 C 68 %
Sensor: Nr:Datum:Temp:Feuchte:
G-T/H 1451 13-04-2021 01:43:17 9 C 68 %
1452 13-04-2021 01:53:17 9 C 68 %
1453 13-04-2021 02:03:17 8.9 C 69 %
1454 13-04-2021 02:13:18 8.9 C 69 %
1455 13-04-2021 02:23:17 8.9 C 69 %
1456 13-04-2021 02:33:17 8.9 C 69 %
1457 13-04-2021 02:43:17 8.8 C 69 %
1458 13-04-2021 02:53:17 8.9 C 69 %
1459 13-04-2021 03:03:18 8.8 C 69 %
1460 13-04-2021 03:13:18 8.8 C 69 %
1461 13-04-2021 03:23:18 8.8 C 69 %
1462 13-04-2021 03:33:17 8.8 C 69 %
1463 13-04-2021 03:43:17 8.7 C 69 %
1464 13-04-2021 03:53:17 8.7 C 69 %
1465 13-04-2021 04:03:17 8.7 C 69 %
1466 13-04-2021 04:13:17 8.6 C 69 %
1467 13-04-2021 04:23:18 8.7 C 69 %
1468 13-04-2021 04:33:17 8.6 C 69 %
1469 13-04-2021 04:43:17 8.6 C 68 %
1470 13-04-2021 04:53:18 8.6 C 68 %
1471 13-04-2021 05:03:17 8.6 C 68 %
1472 13-04-2021 05:13:17 8.5 C 68 %
1473 13-04-2021 05:23:17 8.5 C 68 %
1474 13-04-2021 05:33:17 8.5 C 68 %
1475 13-04-2021 05:43:17 8.5 C 68 %
Sensor: Nr:Datum:Temp:Feuchte:
G-T/H 1476 13-04-2021 05:53:18 8.5 C 68 %
1477 13-04-2021 06:03:17 8.5 C 68 %
1478 13-04-2021 06:13:17 8.5 C 68 %
1479 13-04-2021 06:23:17 8.4 C 68 %
1480 13-04-2021 06:33:18 8.4 C 68 %
1481 13-04-2021 06:43:18 8.4 C 68 %
1482 13-04-2021 06:53:17 8.4 C 68 %
1483 13-04-2021 07:03:17 8.4 C 68 %
1484 13-04-2021 07:13:17 8.3 C 68 %
1485 13-04-2021 07:23:17 8.3 C 68 %
1486 13-04-2021 07:33:18 8.3 C 68 %
1487 13-04-2021 07:43:18 8.3 C 68 %
1488 13-04-2021 07:53:17 8.2 C 68 %
1489 13-04-2021 08:03:17 8.2 C 68 %
1490 13-04-2021 08:13:17 8.3 C 68 %
1491 13-04-2021 08:23:17 8.2 C 68 %
1492 13-04-2021 08:33:18 8.2 C 68 %
1493 13-04-2021 08:43:18 8.2 C 68 %
1494 13-04-2021 08:53:18 8.2 C 68 %
1495 13-04-2021 09:03:17 8.2 C 68 %
1496 13-04-2021 09:13:17 8.2 C 68 %
1497 13-04-2021 09:23:18 8.1 C 68 %
1498 13-04-2021 09:33:17 8.1 C 68 %
1499 13-04-2021 09:43:17 8.1 C 68 %
1500 13-04-2021 09:53:17 8.1 C 68 %
Sensor: Nr:Datum:Temp:Feuchte:
G-T/H 1501 13-04-2021 10:03:17 8.2 C 68 %
1502 13-04-2021 10:13:17 8.1 C 68 %

Legende:
   Min
   Max


Maximal/Minimal-Werte vom 03.04.2021 - 13.04.2021

Sensor Min Max Avg
Temp
(Aussen-T/F)
-2.6 °C
13-04-2021  06:53:17
18.3 °C
03-04-2021  15:42:18
5.07 °C
Feuchte
(Aussen-T/F)
20 %
03-04-2021  14:22:17
51 %
04-04-2021  07:12:17
39.08 %
Temp
(G-T/H)
7.5 °C
08-04-2021  05:43:17
11.4 °C
03-04-2021  00:02:17
9.32 °C
Feuchte
(G-T/H)
57 %
09-04-2021  16:23:17
71 %
11-04-2021  07:23:18
66.31 %

Die Daten stammen von einer Davis Vantage Pro 2 Wetter-Station und werden unter Linux mit der Software wview2wettercgi und aufbereitet. Alle Angaben erfolgen ohne Gewähr für ihre Vollständigkeit oder Richtigkeit.
Kontakt: Rainer Krienke krienke@uni-koblenz.de . Meine Webseiten an der Uni Koblenz oder privat.
Version: $Revision: 0.78 $